M I D A S
Marine Information and Data Acquisition System
Tripno 2243 of the Zeeleeuw from 2011-11-10 07:49:08 to 2011-11-10 16:26:49
Back to CruiseResearch ActivitiesStationsMapUnderway DataData graphs

EquipmentUnitsComment
TimeDGPSUTC
LatitudeDGPSDM.mWGS84
LongitudeDGPSDM.mWGS84
TemperatureSBE03/SBE38deg celciusITS90
ConductivitySBE21S/mITS90
SalinitySBE21 Practical Salinity Units
ChlorophylAChelsea fluorimeterg/lCalibrated in Aceton
Missing or incorrect values are displayed as -999
Sea surface data collected by the RV Zeeleeuw from 2011-11-10 07:20:09 to 2011-11-10 16:36:01
                                                                                    Next 1000 lines
Time Latitude Longitude Temperature Conductivity Salinity ChlorophylA
2011-11-10 07:20:21 51°13.64 2°56.018 19.2167 1.068953 6.338215 -3.020363
2011-11-10 07:20:25 51°13.639 2°56.018 19.219 1.06885 6.337556 -3.020363
2011-11-10 07:20:30 51°13.639 2°56.018 19.2204 1.06885 6.337556 -3.020363
2011-11-10 07:20:34 51°13.639 2°56.018 19.2209 1.069469 6.341505 -3.020363
2011-11-10 07:20:39 51°13.639 2°56.018 19.2204 1.069572 6.342164 -3.020363
2011-11-10 07:20:46 51°13.638 2°56.018 19.222 1.069572 6.342164 -3.020363
2011-11-10 07:20:49 51°13.638 2°56.018 19.2202 1.069469 6.341505 -3.020363
2011-11-10 07:20:54 51°13.637 2°56.018 19.2213 1.069778 6.343586 -3.020363
2011-11-10 07:20:59 51°13.638 2°56.019 19.2228 1.069778 6.343586 -3.020363
2011-11-10 07:21:05 51°13.637 2°56.019 19.221 1.070499 6.348088 -3.020363
2011-11-10 07:21:10 51°13.637 2°56.019 19.2237 1.069572 6.342164 -3.020363
2011-11-10 07:21:14 51°13.637 2°56.019 19.2245 1.070602 6.348746 -3.020363
2011-11-10 07:21:19 51°13.636 2°56.019 19.2244 1.069984 6.344903 -3.020363
2011-11-10 07:21:25 51°13.635 2°56.018 19.2245 1.07019 6.346113 -3.020363
2011-11-10 07:21:30 51°13.635 2°56.018 19.2215 1.07019 6.346113 -3.020363
2011-11-10 07:21:35 51°13.635 2°56.018 19.2224 1.069881 6.344244 -3.020363
2011-11-10 07:21:40 51°13.634 2°56.019 19.2241 1.069984 6.344903 -3.020363
2011-11-10 07:21:45 51°13.634 2°56.018 19.2217 1.069778 6.343586 -3.020363
2011-11-10 07:21:50 51°13.635 2°56.019 19.2227 1.07019 6.346219 -3.020363
2011-11-10 07:21:55 51°13.635 2°56.019 19.2236 1.070602 6.348852 -3.020363
2011-11-10 07:22:00 51°13.636 2°56.019 19.2241 1.070602 6.348852 -3.020363
2011-11-10 07:22:04 51°13.636 2°56.019 19.225 1.070499 6.348194 -3.020363
2011-11-10 07:22:10 51°13.637 2°56.019 19.2245 1.070499 6.348194 -3.020363
2011-11-10 07:22:15 51°13.637 2°56.019 19.2262 1.069778 6.343586 -3.020363
2011-11-10 07:22:20 51°13.636 2°56.019 19.2271 1.07019 6.346219 -3.020363
2011-11-10 07:22:25 51°13.636 2°56.018 19.2231 1.070602 6.348852 -3.020363
2011-11-10 07:22:31 51°13.636 2°56.018 19.225 1.070602 6.348852 -3.020363
2011-11-10 07:22:35 51°13.636 2°56.018 19.2255 1.071014 6.351485 -3.020363
2011-11-10 07:22:40 51°13.635 2°56.018 19.2239 1.070396 6.347536 -3.020363
2011-11-10 07:22:45 51°13.634 2°56.018 19.2227 1.069778 6.343586 -3.020363
2011-11-10 07:22:50 51°13.633 2°56.018 19.2226 1.069675 6.342928 -3.020363
2011-11-10 07:22:54 51°13.633 2°56.018 19.2213 1.069469 6.341611 -3.020363
2011-11-10 07:23:00 51°13.633 2°56.018 19.2201 1.069469 6.341611 -3.020363
2011-11-10 07:23:05 51°13.634 2°56.018 19.2202 1.069572 6.34227 -3.020363
2011-11-10 07:23:10 51°13.634 2°56.018 19.2186 1.069984 6.344903 -3.020363
2011-11-10 07:23:14 51°13.634 2°56.018 19.2188 1.070087 6.345561 -3.020363
2011-11-10 07:23:20 51°13.635 2°56.018 19.2211 1.07019 6.346325 -3.020363
2011-11-10 07:23:25 51°13.635 2°56.018 19.2209 1.070396 6.347642 -3.020363
2011-11-10 07:23:29 51°13.635 2°56.018 19.2215 1.070396 6.347642 -3.020363
2011-11-10 07:23:35 51°13.635 2°56.018 19.2226 1.069881 6.34435 -3.020363
2011-11-10 07:23:39 51°13.635 2°56.018 19.2231 1.069778 6.343692 -3.020363
2011-11-10 07:23:45 51°13.635 2°56.018 19.222 1.070293 6.346983 -3.020363
2011-11-10 07:23:50 51°13.635 2°56.018 19.2233 1.07019 6.346325 -3.020363
2011-11-10 07:23:55 51°13.635 2°56.018 19.2223 1.069984 6.345009 -3.020363
2011-11-10 07:24:00 51°13.635 2°56.018 19.224 1.069984 6.345009 -3.020363
2011-11-10 07:24:04 51°13.634 2°56.018 19.2218 1.071117 6.352356 -3.020363
2011-11-10 07:24:10 51°13.634 2°56.018 19.2206 1.070499 6.3483 -3.020363
2011-11-10 07:24:15 51°13.635 2°56.018 19.2219 1.070087 6.345667 -3.020363
2011-11-10 07:24:20 51°13.635 2°56.018 19.2219 1.069984 6.345009 -3.020363
2011-11-10 07:24:25 51°13.635 2°56.018 19.2203 1.070602 6.348958 -3.020363
2011-11-10 07:24:30 51°13.635 2°56.018 19.2209 1.070602 6.348958 -3.020363
2011-11-10 07:24:35 51°13.635 2°56.018 19.2213 1.070293 6.346983 -3.020363
2011-11-10 07:24:40 51°13.635 2°56.018 19.2212 1.070705 6.349617 -3.020363
2011-11-10 07:24:44 51°13.635 2°56.018 19.2233 1.071014 6.351698 -3.020363
2011-11-10 07:24:50 51°13.636 2°56.018 19.2219 1.071117 6.352356 -3.020363
2011-11-10 07:24:55 51°13.636 2°56.018 19.2218 1.070911 6.351039 -3.020363
2011-11-10 07:25:00 51°13.636 2°56.018 19.2208 1.070911 6.351039 -3.020363
2011-11-10 07:25:05 51°13.636 2°56.018 19.219 1.070911 6.351039 -3.020363
2011-11-10 07:25:10 51°13.636 2°56.018 19.2178 1.069881 6.344457 -3.020363
2011-11-10 07:25:15 51°13.636 2°56.018 19.2198 1.070602 6.349064 -3.020363
2011-11-10 07:25:20 51°13.636 2°56.018 19.2176 1.07019 6.346431 -3.020363
2011-11-10 07:25:26 51°13.636 2°56.019 19.216 1.070499 6.348406 -3.020363
2011-11-10 07:25:30 51°13.636 2°56.019 19.2148 1.070499 6.348406 -3.020363
2011-11-10 07:25:34 51°13.636 2°56.018 19.214 1.070705 6.349723 -3.020363
2011-11-10 07:25:40 51°13.637 2°56.018 19.2137 1.071014 6.351698 -3.020363
2011-11-10 07:25:45 51°13.637 2°56.018 19.214 1.070705 6.349723 -3.020363
2011-11-10 07:25:50 51°13.637 2°56.018 19.2156 1.071117 6.352356 -3.020363
2011-11-10 07:25:55 51°13.637 2°56.018 19.2159 1.070808 6.350381 -3.020363
2011-11-10 07:26:00 51°13.638 2°56.018 19.2163 1.070808 6.350381 -3.020363
2011-11-10 07:26:05 51°13.638 2°56.018 19.2166 1.070293 6.34709 -3.020363
2011-11-10 07:26:10 51°13.638 2°56.018 19.215 1.071323 6.353673 -3.020363
2011-11-10 07:26:15 51°13.637 2°56.018 19.214 1.070911 6.351146 -3.020363
2011-11-10 07:26:20 51°13.637 2°56.018 19.2157 1.071426 6.354437 -3.020363
2011-11-10 07:26:25 51°13.637 2°56.018 19.2159 1.071941 6.357729 -3.020363
2011-11-10 07:26:30 51°13.637 2°56.018 19.2162 1.071941 6.357729 -3.020363
2011-11-10 07:26:35 51°13.637 2°56.018 19.2171 1.071014 6.351804 -3.020363
2011-11-10 07:26:40 51°13.637 2°56.018 19.2187 1.071323 6.353779 -3.020363
2011-11-10 07:26:45 51°13.637 2°56.018 19.2187 1.071529 6.355096 -3.020363
2011-11-10 07:26:50 51°13.637 2°56.018 19.2209 1.071117 6.352462 -3.020363
2011-11-10 07:26:55 51°13.637 2°56.018 19.2226 1.07225 6.359704 -3.020363
2011-11-10 07:27:00 51°13.638 2°56.018 19.2189 1.07225 6.359704 -3.020363
2011-11-10 07:27:05 51°13.637 2°56.018 19.2213 1.071941 6.357729 -3.020363
2011-11-10 07:27:10 51°13.637 2°56.018 19.2243 1.071426 6.354437 -3.020363
2011-11-10 07:27:15 51°13.637 2°56.018 19.2262 1.072559 6.36168 -3.020363
2011-11-10 07:27:20 51°13.636 2°56.018 19.2282 1.071941 6.357729 -3.020363
2011-11-10 07:27:25 51°13.636 2°56.018 19.2271 1.072765 6.363103 -3.020363
2011-11-10 07:27:30 51°13.635 2°56.018 19.2247 1.072765 6.363103 -3.020363
2011-11-10 07:27:35 51°13.635 2°56.018 19.2241 1.072044 6.358494 -3.020363
2011-11-10 07:27:40 51°13.635 2°56.018 19.2241 1.072456 6.361021 -3.020363
2011-11-10 07:27:45 51°13.636 2°56.018 19.2242 1.072456 6.361128 -3.020363
2011-11-10 07:27:50 51°13.636 2°56.018 19.2228 1.071735 6.356519 -3.020363
2011-11-10 07:27:55 51°13.636 2°56.018 19.221 1.072559 6.361786 -3.020363
2011-11-10 07:28:00 51°13.636 2°56.018 19.2227 1.072559 6.361786 -3.020363
2011-11-10 07:28:05 51°13.636 2°56.018 19.2231 1.072147 6.359152 -3.020363
2011-11-10 07:28:10 51°13.636 2°56.018 19.2249 1.072559 6.361786 -3.020363
2011-11-10 07:28:15 51°13.637 2°56.018 19.2251 1.071529 6.355202 -3.020363
2011-11-10 07:28:20 51°13.637 2°56.018 19.2233 1.071117 6.352569 -3.020363
2011-11-10 07:28:25 51°13.636 2°56.018 19.22 1.072456 6.361128 -3.020363
2011-11-10 07:28:30 51°13.636 2°56.018 19.2197 1.072456 6.361128 -3.020363
2011-11-10 07:28:35 51°13.636 2°56.018 19.2221 1.071529 6.355202 -3.020363
2011-11-10 07:28:40 51°13.636 2°56.018 19.2228 1.071323 6.353885 -3.020363
2011-11-10 07:28:45 51°13.636 2°56.018 19.2246 1.071941 6.357836 -3.020363
2011-11-10 07:28:50 51°13.636 2°56.018 19.2247 1.070705 6.349935 -3.020363
2011-11-10 07:28:55 51°13.636 2°56.018 19.2272 1.071941 6.357836 -3.020363
2011-11-10 07:29:00 51°13.636 2°56.018 19.2264 1.071941 6.357836 -3.020363
2011-11-10 07:29:05 51°13.636 2°56.018 19.2263 1.072044 6.358494 -3.020363
2011-11-10 07:29:10 51°13.636 2°56.018 19.227 1.071117 6.352569 -3.020363
2011-11-10 07:29:15 51°13.636 2°56.018 19.2287 1.071426 6.354544 -3.020363
2011-11-10 07:29:20 51°13.636 2°56.018 19.2281 1.070705 6.349935 -3.020363
2011-11-10 07:29:25 51°13.636 2°56.018 19.2278 1.071323 6.353991 -3.020363
2011-11-10 07:29:29 51°13.636 2°56.018 19.2294 1.070808 6.3507 -3.020363
2011-11-10 07:29:36 51°13.636 2°56.018 19.2314 1.070808 6.3507 -3.020363
2011-11-10 07:29:41 51°13.637 2°56.018 19.2316 1.071838 6.357283 -3.020363
2011-11-10 07:29:46 51°13.637 2°56.019 19.2327 1.071838 6.357283 -3.020363
2011-11-10 07:29:51 51°13.638 2°56.019 19.2321 1.071014 6.352016 -3.020363
2011-11-10 07:29:56 51°13.638 2°56.019 19.2311 1.071117 6.352675 -3.020363
2011-11-10 07:30:01 51°13.638 2°56.019 19.2305 1.071014 6.352016 -3.020363
2011-11-10 07:30:06 51°13.638 2°56.019 19.2314 1.071014 6.352016 -3.020363
2011-11-10 07:30:11 51°13.638 2°56.019 19.23 1.071426 6.35465 -3.020363
2011-11-10 07:30:16 51°13.638 2°56.019 19.2322 1.070808 6.3507 -3.020363
2011-11-10 07:30:21 51°13.638 2°56.019 19.2346 1.071735 6.356625 -3.020363
2011-11-10 07:30:26 51°13.638 2°56.019 19.2356 1.071529 6.355308 -3.020363
2011-11-10 07:30:31 51°13.638 2°56.019 19.2387 1.072044 6.3586 -3.020363
2011-11-10 07:30:36 51°13.639 2°56.019 19.2385 1.072044 6.3586 -3.020363
2011-11-10 07:30:41 51°13.639 2°56.019 19.2388 1.07225 6.359917 -3.020363
2011-11-10 07:30:46 51°13.639 2°56.019 19.24 1.072044 6.3586 -3.020363
2011-11-10 07:30:51 51°13.64 2°56.019 19.24 1.071838 6.35739 -3.020363
2011-11-10 07:30:55 51°13.64 2°56.019 19.2398 1.07225 6.359917 -3.020363
2011-11-10 07:31:01 51°13.64 2°56.019 19.2408 1.071735 6.356731 -3.020363
2011-11-10 07:31:06 51°13.64 2°56.019 19.2405 1.071735 6.356731 -3.020363
2011-11-10 07:31:11 51°13.639 2°56.019 19.2409 1.071529 6.355415 -3.020363
2011-11-10 07:31:16 51°13.639 2°56.019 19.2409 1.071632 6.355967 -3.020363
2011-11-10 07:31:21 51°13.639 2°56.019 19.2406 1.07225 6.360023 -3.020363
2011-11-10 07:31:25 51°13.638 2°56.019 19.2425 1.07225 6.360023 -3.020363
2011-11-10 07:31:30 51°13.637 2°56.019 19.2424 1.07225 6.360023 -3.020363
2011-11-10 07:31:35 51°13.637 2°56.019 19.2412 1.07225 6.360023 -3.020363
2011-11-10 07:31:40 51°13.637 2°56.019 19.2411 1.07225 6.360023 -3.020363
2011-11-10 07:31:44 51°13.637 2°56.019 19.2421 1.071941 6.358048 -3.020363
2011-11-10 07:31:50 51°13.636 2°56.019 19.2406 1.071632 6.356073 -3.020363
2011-11-10 07:31:55 51°13.636 2°56.019 19.2395 1.072456 6.36134 -3.020363
2011-11-10 07:32:00 51°13.637 2°56.019 19.2407 1.072147 6.359365 -3.020363
2011-11-10 07:32:05 51°13.637 2°56.019 19.2422 1.072147 6.359365 -3.020363
2011-11-10 07:32:10 51°13.636 2°56.019 19.2429 1.072353 6.360682 -3.020363
2011-11-10 07:32:14 51°13.635 2°56.019 19.2434 1.07225 6.360023 -3.020363
2011-11-10 07:32:20 51°13.635 2°56.019 19.243 1.071529 6.355521 -3.020363
2011-11-10 07:32:24 51°13.635 2°56.019 19.2433 1.072765 6.363316 -3.020363
2011-11-10 07:32:29 51°13.635 2°56.018 19.2429 1.07225 6.36013 -3.020363
2011-11-10 07:32:34 51°13.635 2°56.018 19.2446 1.07225 6.36013 -3.020363
2011-11-10 07:32:39 51°13.634 2°56.018 19.244 1.072868 6.363974 -3.020363
2011-11-10 07:32:44 51°13.634 2°56.018 19.2432 1.072662 6.362764 -3.020363
2011-11-10 07:32:48 51°13.634 2°56.019 19.2447 1.072353 6.360788 -3.020363
2011-11-10 07:32:54 51°13.634 2°56.019 19.2432 1.072765 6.363422 -3.020363
2011-11-10 07:32:59 51°13.635 2°56.019 19.2424 1.072353 6.360788 -3.020363
2011-11-10 07:33:04 51°13.635 2°56.019 19.2445 1.072353 6.360788 -3.020363
2011-11-10 07:33:09 51°13.635 2°56.019 19.2415 1.072662 6.362764 -3.020363
2011-11-10 07:33:13 51°13.636 2°56.019 19.2372 1.07225 6.36013 -3.020363
2011-11-10 07:33:19 51°13.636 2°56.019 19.2358 1.071529 6.355521 -3.020363
2011-11-10 07:33:23 51°13.636 2°56.019 19.2345 1.07122 6.353546 -3.020363
2011-11-10 07:33:28 51°13.637 2°56.019 19.2345 1.071014 6.352229 -3.020363
2011-11-10 07:33:33 51°13.637 2°56.019 19.2352 1.071014 6.352229 -3.020363
2011-11-10 07:33:39 51°13.637 2°56.019 19.2357 1.071014 6.352229 -3.020363
2011-11-10 07:33:44 51°13.637 2°56.019 19.2387 1.071941 6.358155 -3.020363
2011-11-10 07:33:48 51°13.637 2°56.019 19.239 1.07122 6.353546 -3.020363
2011-11-10 07:33:53 51°13.637 2°56.019 19.238 1.070602 6.349702 -3.020363
2011-11-10 07:33:59 51°13.637 2°56.019 19.2387 1.070911 6.351677 -3.020363
2011-11-10 07:34:04 51°13.636 2°56.019 19.2386 1.070911 6.351677 -3.020363
2011-11-10 07:34:08 51°13.636 2°56.018 19.2383 1.07019 6.347068 -3.020363
2011-11-10 07:34:13 51°13.636 2°56.018 19.2392 1.070499 6.349043 -3.020363
2011-11-10 07:34:19 51°13.637 2°56.018 19.2408 1.070396 6.348385 -3.020363
2011-11-10 07:34:23 51°13.637 2°56.018 19.2408 1.070293 6.347727 -3.020363
2011-11-10 07:34:29 51°13.636 2°56.019 19.2413 1.070087 6.346516 -3.020363
2011-11-10 07:34:33 51°13.636 2°56.019 19.2398 1.070087 6.346516 -3.020363
2011-11-10 07:34:39 51°13.636 2°56.019 19.2392 1.070602 6.349702 -3.020363
2011-11-10 07:34:43 51°13.637 2°56.019 19.241 1.070911 6.351783 -3.020363
2011-11-10 07:34:48 51°13.636 2°56.019 19.2413 1.070808 6.351125 -3.020363
2011-11-10 07:34:53 51°13.636 2°56.019 19.2416 1.071014 6.352441 -3.020363
2011-11-10 07:34:58 51°13.637 2°56.018 19.2423 1.07122 6.353758 -3.020363
2011-11-10 07:35:03 51°13.637 2°56.018 19.2449 1.07122 6.353758 -3.020363
2011-11-10 07:35:08 51°13.637 2°56.018 19.2473 1.070705 6.350466 -3.020363
2011-11-10 07:35:13 51°13.636 2°56.018 19.2455 1.071323 6.354417 -3.020363
2011-11-10 07:35:18 51°13.636 2°56.019 19.2448 1.070808 6.351231 -3.020363
2011-11-10 07:35:23 51°13.636 2°56.018 19.2453 1.070808 6.351231 -3.020363
2011-11-10 07:35:28 51°13.635 2°56.018 19.2464 1.071632 6.356498 -3.020363
2011-11-10 07:35:32 51°13.635 2°56.018 19.2455 1.071632 6.356498 -3.020363
2011-11-10 07:35:37 51°13.634 2°56.017 19.2477 1.072044 6.359132 -3.020363
2011-11-10 07:35:42 51°13.634 2°56.017 19.2488 1.071323 6.354523 -3.020363
2011-11-10 07:35:47 51°13.634 2°56.017 19.247 1.071426 6.355288 -3.020363
2011-11-10 07:35:52 51°13.634 2°56.017 19.2477 1.071941 6.35858 -3.020363
2011-11-10 07:35:56 51°13.634 2°56.017 19.2478 1.071529 6.355946 -3.020363
2011-11-10 07:36:02 51°13.634 2°56.018 19.2462 1.071529 6.355946 -3.020363
2011-11-10 07:36:07 51°13.635 2°56.017 19.2472 1.071529 6.355946 -3.020363
2011-11-10 07:36:13 51°13.635 2°56.018 19.2458 1.071323 6.354629 -3.020363
2011-11-10 07:36:17 51°13.635 2°56.018 19.2466 1.071838 6.358028 -3.020363
2011-11-10 07:36:23 51°13.635 2°56.018 19.2463 1.070808 6.351443 -3.020363
2011-11-10 07:36:28 51°13.636 2°56.018 19.2463 1.071014 6.35276 -3.020363
2011-11-10 07:36:33 51°13.636 2°56.018 19.2375 1.071014 6.35276 -3.020363
2011-11-10 07:36:37 51°13.635 2°56.018 19.2312 1.072353 6.36132 -3.020363
2011-11-10 07:36:42 51°13.635 2°56.018 19.2292 1.071014 6.35276 -3.020363
2011-11-10 07:36:48 51°13.635 2°56.018 19.2299 1.072456 6.361979 -3.020363
2011-11-10 07:36:52 51°13.635 2°56.018 19.2281 1.071426 6.355394 -3.020363
2011-11-10 07:36:57 51°13.635 2°56.018 19.2293 1.070602 6.350126 -3.020363
2011-11-10 07:37:02 51°13.635 2°56.018 19.2309 1.070602 6.350126 -3.020363
2011-11-10 07:37:08 51°13.635 2°56.018 19.2325 1.070911 6.352208 -3.020363
2011-11-10 07:37:13 51°13.635 2°56.018 19.2341 1.070808 6.351443 -3.020363
2011-11-10 07:37:18 51°13.635 2°56.018 19.2361 1.070705 6.350891 -3.020363
2011-11-10 07:37:23 51°13.635 2°56.018 19.2394 1.070602 6.350233 -3.020363
2011-11-10 07:37:28 51°13.635 2°56.018 19.2401 1.070499 6.349574 -3.020363
2011-11-10 07:37:33 51°13.635 2°56.018 19.2413 1.070499 6.349574 -3.020363
2011-11-10 07:37:37 51°13.635 2°56.018 19.2427 1.070396 6.348916 -3.020363
2011-11-10 07:37:42 51°13.634 2°56.018 19.2441 1.07122 6.354183 -3.020363
2011-11-10 07:37:48 51°13.634 2°56.018 19.2426 1.070499 6.34968 -3.020363
2011-11-10 07:37:53 51°13.635 2°56.018 19.2437 1.07122 6.35429 -3.020363
2011-11-10 07:37:59 51°13.635 2°56.018 19.2444 1.070705 6.350997 -3.020363
2011-11-10 07:38:05 51°13.635 2°56.018 19.2453 1.070705 6.350997 -3.020363
2011-11-10 07:38:09 51°13.635 2°56.018 19.2482 1.071426 6.355607 -3.020363
2011-11-10 07:38:14 51°13.635 2°56.019 19.2478 1.071323 6.355054 -3.020363
2011-11-10 07:38:19 51°13.635 2°56.019 19.2481 1.070087 6.347153 -3.020363
2011-11-10 07:38:24 51°13.635 2°56.019 19.249 1.070808 6.351656 -3.020363
2011-11-10 07:38:29 51°13.635 2°56.019 19.2513 1.071323 6.354948 -3.020363
2011-11-10 07:38:34 51°13.635 2°56.019 19.2515 1.071323 6.354948 -3.020363
2011-11-10 07:38:39 51°13.635 2°56.019 19.253 1.071735 6.357688 -3.020363
2011-11-10 07:38:45 51°13.636 2°56.019 19.2543 1.071529 6.356371 -3.020363
2011-11-10 07:38:49 51°13.636 2°56.019 19.2548 1.071529 6.356371 -3.020363
2011-11-10 07:38:54 51°13.636 2°56.019 19.2544 1.071632 6.357136 -3.020363
2011-11-10 07:38:59 51°13.636 2°56.019 19.2544 1.071529 6.356478 -3.020363
2011-11-10 07:39:05 51°13.636 2°56.019 19.2544 1.071529 6.356478 -3.020363
2011-11-10 07:39:09 51°13.636 2°56.019 19.2526 1.071632 6.357136 -3.020363
2011-11-10 07:39:14 51°13.636 2°56.019 19.2538 1.070602 6.350551 -3.020363
2011-11-10 07:39:19 51°13.636 2°56.019 19.2539 1.071014 6.353185 -3.020363
2011-11-10 07:39:24 51°13.635 2°56.019 19.2541 1.071117 6.35395 -3.020363
2011-11-10 07:39:29 51°13.635 2°56.019 19.2544 1.071014 6.353291 -3.020363
2011-11-10 07:39:34 51°13.635 2°56.019 19.2533 1.071014 6.353291 -3.020363
2011-11-10 07:39:39 51°13.635 2°56.019 19.254 1.071735 6.357901 -3.020363
2011-11-10 07:39:44 51°13.635 2°56.019 19.2513 1.070602 6.350658 -3.020363
2011-11-10 07:39:49 51°13.635 2°56.019 19.2515 1.07019 6.348024 -3.020363
2011-11-10 07:39:53 51°13.635 2°56.019 19.2513 1.070602 6.350658 -3.020363
2011-11-10 07:39:58 51°13.635 2°56.019 19.2522 1.070396 6.349447 -3.020363
2011-11-10 07:40:03 51°13.635 2°56.019 19.2514 1.070396 6.349447 -3.020363
2011-11-10 07:40:08 51°13.635 2°56.019 19.2496 1.071941 6.359325 -3.020363
2011-11-10 07:40:13 51°13.635 2°56.019 19.2473 1.070911 6.352739 -3.020363
2011-11-10 07:40:18 51°13.635 2°56.019 19.2485 1.070911 6.352739 -3.020363
2011-11-10 07:40:23 51°13.635 2°56.019 19.2522 1.069263 6.342204 -3.020363
2011-11-10 07:40:28 51°13.635 2°56.019 19.2516 1.068954 6.340229 -3.020363
2011-11-10 07:40:33 51°13.635 2°56.019 19.251 1.068954 6.340229 -3.020363
2011-11-10 07:40:37 51°13.635 2°56.019 19.2527 1.069675 6.344944 -3.020363
2011-11-10 07:40:42 51°13.635 2°56.019 19.253 1.070808 6.352187 -3.020363
2011-11-10 07:40:48 51°13.635 2°56.019 19.2502 1.072559 6.363382 -3.020363
2011-11-10 07:40:52 51°13.635 2°56.019 19.2506 1.070705 6.351529 -3.020363
2011-11-10 07:40:57 51°13.635 2°56.019 19.2499 1.072044 6.360196 -3.020363
2011-11-10 07:41:02 51°13.635 2°56.019 19.2509 1.072044 6.360196 -3.020363
2011-11-10 07:41:07 51°13.635 2°56.019 19.2514 1.070499 6.350318 -3.020363
2011-11-10 07:41:12 51°13.635 2°56.019 19.2533 1.07122 6.354927 -3.020363
2011-11-10 07:41:17 51°13.635 2°56.019 19.2538 1.070499 6.350318 -3.020363
2011-11-10 07:41:22 51°13.634 2°56.019 19.2541 1.070602 6.350976 -3.020363
2011-11-10 07:41:28 51°13.634 2°56.019 19.2522 1.070396 6.349766 -3.020363
2011-11-10 07:41:32 51°13.634 2°56.019 19.2575 1.070396 6.349766 -3.020363
2011-11-10 07:41:37 51°13.634 2°56.019 19.2637 1.068851 6.339889 -3.020363
2011-11-10 07:41:42 51°13.634 2°56.019 19.2704 1.070911 6.353058 -3.020363
2011-11-10 07:41:47 51°13.633 2°56.019 19.251 1.06916 6.341864 -3.020363
2011-11-10 07:41:52 51°13.633 2°56.019 19.22 1.082552 6.42751 -3.020363
2011-11-10 07:41:57 51°13.634 2°56.019 19.2176 1.085849 6.448716 -3.020363
2011-11-10 07:42:02 51°13.634 2°56.019 19.1974 1.085849 6.448716 -3.020363
2011-11-10 07:42:07 51°13.634 2°56.019 19.1983 1.081728 6.422452 -3.020363
2011-11-10 07:42:13 51°13.634 2°56.019 19.2022 1.083273 6.43234 -3.020363
2011-11-10 07:42:17 51°13.634 2°56.019 19.2031 1.082964 6.430362 -3.020363
2011-11-10 07:42:22 51°13.634 2°56.019 19.2015 1.085745 6.448164 -3.020363
2011-11-10 07:42:27 51°13.634 2°56.019 19.1999 1.081934 6.423878 -3.020363
2011-11-10 07:42:32 51°13.634 2°56.019 19.2023 1.081934 6.423878 -3.020363
2011-11-10 07:42:37 51°13.634 2°56.019 19.197 1.084715 6.441678 -3.020363
2011-11-10 07:42:42 51°13.634 2°56.02 19.1691 1.076577 6.3895 -3.020363
2011-11-10 07:42:47 51°13.634 2°56.02 19.1756 1.08317 6.431681 -3.020363
2011-11-10 07:42:52 51°13.634 2°56.019 19.2072 1.085024 6.443657 -3.020363
2011-11-10 07:42:57 51°13.634 2°56.019 19.2245 1.083788 6.435744 -3.020363
2011-11-10 07:43:02 51°13.634 2°56.019 19.2179 1.083788 6.435744 -3.020363
2011-11-10 07:43:08 51°13.634 2°56.019 19.2117 1.083273 6.432448 -3.020363
2011-11-10 07:43:12 51°13.634 2°56.02 19.2121 1.085127 6.444316 -3.020363
2011-11-10 07:43:17 51°13.634 2°56.02 19.2158 1.085333 6.445743 -3.020363
2011-11-10 07:43:23 51°13.634 2°56.019 19.217 1.08657 6.453764 -3.020363
2011-11-10 07:43:28 51°13.634 2°56.019 19.2196 1.085539 6.447169 -3.020363
2011-11-10 07:43:33 51°13.634 2°56.019 19.2185 1.085539 6.447169 -3.020363
2011-11-10 07:43:37 51°13.634 2°56.02 19.2203 1.084921 6.443105 -3.020363
2011-11-10 07:43:42 51°13.634 2°56.02 19.2203 1.086364 6.452445 -3.020363
2011-11-10 07:43:47 51°13.633 2°56.019 19.2233 1.085849 6.449148 -3.020363
2011-11-10 07:43:52 51°13.633 2°56.019 19.2246 1.085745 6.448596 -3.020363
2011-11-10 07:43:57 51°13.633 2°56.019 19.2235 1.085436 6.446618 -3.020363
2011-11-10 07:44:02 51°13.633 2°56.019 19.225 1.085436 6.446618 -3.020363
2011-11-10 07:44:07 51°13.633 2°56.019 19.2273 1.088115 6.463765 -3.020363
2011-11-10 07:44:13 51°13.633 2°56.019 19.2286 1.087703 6.461127 -3.020363
2011-11-10 07:44:17 51°13.633 2°56.019 19.2306 1.088527 6.466404 -3.020363
2011-11-10 07:44:22 51°13.633 2°56.019 19.2319 1.088527 6.466512 -3.020363
2011-11-10 07:44:27 51°13.633 2°56.019 19.2331 1.086776 6.455299 -3.020363
2011-11-10 07:44:32 51°13.633 2°56.019 19.2346 1.086776 6.455299 -3.020363
2011-11-10 07:44:37 51°13.632 2°56.019 19.2356 1.087394 6.459256 -3.020363
2011-11-10 07:44:42 51°13.631 2°56.019 19.2367 1.088218 6.464533 -3.020363
2011-11-10 07:44:47 51°13.631 2°56.019 19.2382 1.088115 6.463982 -3.020363
2011-11-10 07:44:52 51°13.632 2°56.019 19.2391 1.088321 6.465301 -3.020363
2011-11-10 07:44:57 51°13.631 2°56.019 19.2396 1.088733 6.46794 -3.020363
2011-11-10 07:45:02 51°13.631 2°56.019 19.2428 1.088733 6.46794 -3.020363
2011-11-10 07:45:07 51°13.632 2°56.019 19.2453 1.088939 6.469259 -3.020363
2011-11-10 07:45:12 51°13.632 2°56.019 19.2455 1.089454 6.472666 -3.020363
2011-11-10 07:45:17 51°13.633 2°56.019 19.2494 1.090072 6.476624 -3.020363
2011-11-10 07:45:22 51°13.633 2°56.019 19.2528 1.088321 6.465409 -3.020363
2011-11-10 07:45:27 51°13.633 2°56.019 19.2544 1.08966 6.473985 -3.020363
2011-11-10 07:45:33 51°13.633 2°56.019 19.2573 1.08966 6.473985 -3.020363
2011-11-10 07:45:37 51°13.633 2°56.019 19.2619 1.089763 6.474645 -3.020363
2011-11-10 07:45:42 51°13.634 2°56.019 19.262 1.088939 6.469367 -3.020363
2011-11-10 07:45:48 51°13.634 2°56.019 19.2622 1.089042 6.470135 -3.020363
2011-11-10 07:45:53 51°13.635 2°56.019 19.2623 1.089866 6.475521 -3.020363
2011-11-10 07:45:57 51°13.636 2°56.019 19.2617 1.088424 6.466285 -3.020363
2011-11-10 07:46:02 51°13.636 2°56.019 19.2617 1.088424 6.466285 -3.020363
2011-11-10 07:46:08 51°13.635 2°56.019 19.2607 1.088939 6.469584 -3.020363
2011-11-10 07:46:12 51°13.635 2°56.019 19.2602 1.090072 6.476841 -3.020363
2011-11-10 07:46:17 51°13.635 2°56.019 19.2598 1.08863 6.467605 -3.020363
2011-11-10 07:46:22 51°13.635 2°56.018 19.255 1.088836 6.469032 -3.020363
2011-11-10 07:46:27 51°13.635 2°56.019 19.2507 1.09069 6.480908 -3.020363
2011-11-10 07:46:32 51°13.635 2°56.019 19.2434 1.09069 6.480908 -3.020363
2011-11-10 07:46:37 51°13.635 2°56.019 19.2454 1.087188 6.458478 -3.020363
2011-11-10 07:46:42 51°13.635 2°56.019 19.2357 1.091721 6.487507 -3.020363
2011-11-10 07:46:47 51°13.635 2°56.019 19.23 1.092854 6.494874 -3.020363
2011-11-10 07:46:53 51°13.634 2°56.018 19.2361 1.093163 6.496854 -3.020363
2011-11-10 07:46:57 51°13.634 2°56.019 19.2366 1.093884 6.501474 -3.020363
2011-11-10 07:47:02 51°13.634 2°56.019 19.266 1.093884 6.501474 -3.020363
2011-11-10 07:47:07 51°13.633 2°56.019 19.2761 1.091309 6.484976 -3.020363
2011-11-10 07:47:12 51°13.633 2°56.019 19.2769 1.091412 6.485744 -3.020363
2011-11-10 07:47:17 51°13.633 2°56.019 19.2761 1.093678 6.500372 -3.020363
2011-11-10 07:47:22 51°13.633 2°56.019 19.2765 1.092751 6.49454 -3.020363
2011-11-10 07:47:27 51°13.633 2°56.019 19.2749 1.094296 6.504332 -3.020363
2011-11-10 07:47:32 51°13.633 2°56.019 19.2738 1.094296 6.504332 -3.020363
2011-11-10 07:47:37 51°13.633 2°56.019 19.2715 1.093884 6.501692 -3.020363
2011-11-10 07:47:42 51°13.633 2°56.019 19.2702 1.093987 6.502352 -3.020363
2011-11-10 07:47:48 51°13.633 2°56.019 19.2686 1.095842 6.514234 -3.020363
2011-11-10 07:47:52 51°13.633 2°56.018 19.2669 1.093369 6.498392 -3.020363
2011-11-10 07:47:57 51°13.633 2°56.019 19.2654 1.096151 6.516214 -3.020363
2011-11-10 07:48:02 51°13.633 2°56.019 19.2654 1.096151 6.516214 -3.020363
2011-11-10 07:48:08 51°13.633 2°56.019 19.2632 1.094811 6.507632 -3.020363
2011-11-10 07:48:13 51°13.633 2°56.019 19.2468 1.092648 6.493772 -3.020363
2011-11-10 07:48:17 51°13.633 2°56.018 19.2466 1.096666 6.519624 -3.020363
2011-11-10 07:48:22 51°13.633 2°56.019 19.2695 1.096048 6.515663 -3.020363
2011-11-10 07:48:27 51°13.633 2°56.018 19.2743 1.095842 6.514343 -3.020363
2011-11-10 07:48:33 51°13.633 2°56.018 19.2739 1.095842 6.514343 -3.020363
2011-11-10 07:48:37 51°13.633 2°56.019 19.2606 1.095326 6.511042 -3.020363
2011-11-10 07:48:42 51°13.633 2°56.019 19.2281 1.089454 6.473424 -3.020363
2011-11-10 07:48:47 51°13.633 2°56.018 19.1869 1.089042 6.470785 -3.020363
2011-11-10 07:48:52 51°13.633 2°56.018 19.1309 1.081625 6.423297 -3.020363
2011-11-10 07:48:57 51°13.633 2°56.017 19.0589 1.101508 6.550661 -3.020363
2011-11-10 07:49:02 51°13.633 2°56.015 19.2553 1.101508 6.550661 -3.020363
2011-11-10 07:49:07 51°13.634 2°56.011 19.2412 1.085539 6.44814 -3.020363
2011-11-10 07:49:12 51°13.635 2°56.008 19.2697 1.090381 6.479254 -3.020363
2011-11-10 07:49:17 51°13.635 2°56.003 19.255 1.092339 6.491901 -3.020363
2011-11-10 07:49:23 51°13.637 2°55.997 19.2662 1.080182 6.414067 -3.020363
2011-11-10 07:49:29 51°13.638 2°55.99 19.2613 1.086055 6.451654 -3.020363
2011-11-10 07:49:34 51°13.639 2°55.984 19.2884 1.086055 6.451654 -3.020363
2011-11-10 07:49:41 51°13.641 2°55.974 19.2417 1.093369 6.498718 -3.020363
2011-11-10 07:49:45 51°13.643 2°55.968 19.2831 1.086261 6.453189 -3.020363
2011-11-10 07:49:51 51°13.644 2°55.959 19.2586 1.093987 6.502787 -3.020363
2011-11-10 07:49:56 51°13.646 2°55.952 19.2605 1.073898 6.374078 -3.020363
2011-11-10 07:50:01 51°13.647 2°55.944 19.2115 1.0876 6.461765 -3.020363
2011-11-10 07:50:05 51°13.648 2°55.937 19.3117 1.0876 6.461765 -3.020363
2011-11-10 07:50:11 51°13.65 2°55.927 19.285 1.095945 6.51533 -3.020363
2011-11-10 07:50:16 51°13.652 2°55.919 19.2854 1.088424 6.467151 -3.020363
2011-11-10 07:50:21 51°13.654 2°55.91 19.2814 1.089042 6.47111 -3.020363
2011-11-10 07:50:25 51°13.656 2°55.903 19.3059 1.091824 6.489035 -3.020363
2011-11-10 07:50:31 51°13.659 2°55.893 19.2738 1.095223 6.510927 -3.020363
2011-11-10 07:50:36 51°13.661 2°55.884 19.2673 1.095223 6.510927 -3.020363
2011-11-10 07:50:41 51°13.664 2°55.874 19.2789 1.088321 6.466708 -3.020363
2011-11-10 07:50:45 51°13.667 2°55.867 19.2928 1.085952 6.451642 -3.020363
2011-11-10 07:50:51 51°13.671 2°55.856 19.2847 1.083582 6.436472 -3.020363
2011-11-10 07:50:56 51°13.674 2°55.847 19.3373 1.088012 6.464837 -3.020363
2011-11-10 07:51:01 51°13.678 2°55.838 19.3463 1.096563 6.519619 -3.020363
2011-11-10 07:51:05 51°13.681 2°55.831 19.3425 1.096563 6.519619 -3.020363
2011-11-10 07:51:11 51°13.686 2°55.821 19.3204 1.092545 6.493873 -3.020363
2011-11-10 07:51:16 51°13.69 2°55.812 19.3036 1.092545 6.493873 -3.020363
2011-11-10 07:51:21 51°13.695 2°55.803 19.2953 1.098211 6.530184 -3.020363
2011-11-10 07:51:25 51°13.698 2°55.796 19.2877 1.095223 6.511036 -3.020363
2011-11-10 07:51:31 51°13.704 2°55.786 19.2918 1.090691 6.481884 -3.020363
2011-11-10 07:51:36 51°13.708 2°55.778 19.2924 1.090691 6.481884 -3.020363
2011-11-10 07:51:41 51°13.713 2°55.769 19.2847 1.085849 6.450983 -3.020363
2011-11-10 07:51:45 51°13.717 2°55.762 19.2932 1.088939 6.470667 -3.020363
2011-11-10 07:51:51 51°13.723 2°55.751 19.2967 1.090587 6.481441 -3.020363
2011-11-10 07:51:56 51°13.728 2°55.743 19.2916 1.102847 6.560126 -3.020363
2011-11-10 07:52:01 51°13.733 2°55.735 19.2974 1.095945 6.515875 -3.020363
2011-11-10 07:52:05 51°13.737 2°55.728 19.2957 1.095945 6.515875 -3.020363
2011-11-10 07:52:11 51°13.743 2°55.719 19.3162 1.090484 6.480999 -3.020363
2011-11-10 07:52:16 51°13.749 2°55.712 19.3289 1.09306 6.497499 -3.020363
2011-11-10 07:52:21 51°13.755 2°55.704 19.2441 1.089969 6.477699 -3.020363
2011-11-10 07:52:25 51°13.759 2°55.699 19.2653 1.092442 6.493539 -3.020363
2011-11-10 07:52:31 51°13.766 2°55.691 19.2661 1.086158 6.453286 -3.020363
2011-11-10 07:52:36 51°13.772 2°55.685 19.2788 1.086158 6.453286 -3.020363
2011-11-10 07:52:41 51°13.779 2°55.679 19.301 1.092648 6.49475 -3.020363
2011-11-10 07:52:45 51°13.784 2°55.675 19.2933 1.095842 6.515215 -3.020363
2011-11-10 07:52:51 51°13.791 2°55.669 19.3047 1.094502 6.506741 -3.020363
2011-11-10 07:52:56 51°13.798 2°55.664 19.3134 1.099756 6.540418 -3.020363
2011-11-10 07:53:01 51°13.805 2°55.66 19.3247 1.096048 6.516754 -3.020363
2011-11-10 07:53:05 51°13.81 2°55.656 19.3167 1.096048 6.516754 -3.020363
2011-11-10 07:53:11 51°13.818 2°55.652 19.3192 1.098417 6.531942 -3.020363
2011-11-10 07:53:16 51°13.825 2°55.649 19.3067 1.102744 6.559795 -3.020363
2011-11-10 07:53:21 51°13.832 2°55.645 19.304 1.101199 6.549885 -3.020363
2011-11-10 07:53:25 51°13.838 2°55.643 19.2382 1.090794 6.483195 -3.020363
2011-11-10 07:53:31 51°13.846 2°55.639 19.2839 1.092236 6.492545 -3.020363
2011-11-10 07:53:36 51°13.853 2°55.636 19.3362 1.092236 6.492545 -3.020363
2011-11-10 07:53:41 51°13.86 2°55.634 19.3557 1.096048 6.516972 -3.020363
2011-11-10 07:53:45 51°13.865 2°55.632 19.3105 1.106453 6.583804 -3.020363
2011-11-10 07:53:51 51°13.873 2°55.629 19.3217 1.096872 6.522255 -3.020363
2011-11-10 07:53:56 51°13.88 2°55.628 19.3259 1.101096 6.549444 -3.020363
2011-11-10 07:54:01 51°13.886 2°55.627 19.3301 1.090072 6.478684 -3.020363
2011-11-10 07:54:05 51°13.891 2°55.626 19.3218 1.090072 6.478684 -3.020363
2011-11-10 07:54:11 51°13.898 2°55.626 19.329 1.093369 6.499806 -3.020363
2011-11-10 07:54:16 51°13.903 2°55.626 19.3515 1.105217 6.575873 -3.020363
2011-11-10 07:54:21 51°13.909 2°55.626 19.3081 1.098211 6.531058 -3.020363
2011-11-10 07:54:25 51°13.913 2°55.627 19.3278 1.09512 6.511138 -3.020363
2011-11-10 07:54:31 51°13.918 2°55.628 19.2931 1.099859 6.541627 -3.020363
2011-11-10 07:54:36 51°13.923 2°55.629 19.2877 1.099859 6.541627 -3.020363
2011-11-10 07:54:41 51°13.927 2°55.631 19.2823 1.092648 6.495403 -3.020363
2011-11-10 07:54:45 51°13.931 2°55.632 19.3381 1.09852 6.533149 -3.020363
2011-11-10 07:54:50 51°13.935 2°55.634 19.29 1.093575 6.501453 -3.020363
2011-11-10 07:54:55 51°13.938 2°55.636 19.307 1.098726 6.53447 -3.020363
2011-11-10 07:55:00 51°13.942 2°55.639 19.2979 1.094399 6.506735 -3.020363
2011-11-10 07:55:05 51°13.946 2°55.641 19.2843 1.094399 6.506735 -3.020363
2011-11-10 07:55:10 51°13.949 2°55.644 19.2963 1.095636 6.514658 -3.020363
2011-11-10 07:55:14 51°13.952 2°55.646 19.3055 1.094708 6.508715 -3.020363
2011-11-10 07:55:19 51°13.955 2°55.648 19.294 1.091103 6.48561 -3.020363
2011-11-10 07:55:24 51°13.958 2°55.651 19.298 1.097387 6.525994 -3.020363
2011-11-10 07:55:29 51°13.961 2°55.654 19.3031 1.092648 6.49562 -3.020363
2011-11-10 07:55:34 51°13.963 2°55.657 19.3163 1.092648 6.49562 -3.020363
2011-11-10 07:55:39 51°13.966 2°55.66 19.357 1.095326 6.512895 -3.020363
2011-11-10 07:55:44 51°13.968 2°55.663 19.3706 1.100375 6.545258 -3.020363
2011-11-10 07:55:49 51°13.969 2°55.665 19.3821 1.096872 6.522801 -3.020363
2011-11-10 07:55:53 51°13.971 2°55.666 19.3761 1.095945 6.516857 -3.020363
2011-11-10 07:55:58 51°13.971 2°55.666 19.3696 1.089866 6.477907 -3.020363
2011-11-10 07:56:03 51°13.972 2°55.665 19.3063 1.089866 6.477907 -3.020363
2011-11-10 07:56:08 51°13.972 2°55.664 19.2859 1.075753 6.387436 -3.020363
2011-11-10 07:56:13 51°13.971 2°55.661 19.1518 1.074104 6.376783 -3.020363
2011-11-10 07:56:17 51°13.971 2°55.658 19.0021 1.059888 6.285786 -3.020363
2011-11-10 07:56:22 51°13.972 2°55.653 19.0577 1.044745 6.188888 -3.020363
2011-11-10 07:56:28 51°13.973 2°55.647 19.0668 1.017963 6.018004 -3.020363
2011-11-10 07:56:32 51°13.974 2°55.642 19.0472 1.017963 6.018004 -3.020363
2011-11-10 07:56:37 51°13.976 2°55.635 19.2627 1.055459 6.257488 -3.020363
2011-11-10 07:56:42 51°13.978 2°55.627 19.2003 1.073589 6.373594 -3.020363
2011-11-10 07:56:47 51°13.982 2°55.618 19.19 1.050205 6.224358 -3.020363
2011-11-10 07:56:52 51°13.986 2°55.608 19.1662 1.061537 6.296739 -3.020363
2011-11-10 07:56:57 51°13.99 2°55.599 19.1589 1.048763 6.215047 -3.020363
2011-11-10 07:57:02 51°13.996 2°55.589 19.1711 1.048763 6.215047 -3.020363
2011-11-10 07:57:07 51°14.001 2°55.579 19.167 1.05175 6.234119 -3.020363
2011-11-10 07:57:12 51°14.008 2°55.569 19.1744 1.048145 6.211102 -3.020363
2011-11-10 07:57:17 51°14.015 2°55.559 19.1837 1.048351 6.212521 -3.020363
2011-11-10 07:57:22 51°14.023 2°55.548 19.1687 1.038462 6.149423 -3.020363
2011-11-10 07:57:27 51°14.031 2°55.538 19.1136 1.047733 6.20868 -3.020363
2011-11-10 07:57:32 51°14.039 2°55.528 19.1371 1.047733 6.20868 -3.020363
2011-11-10 07:57:37 51°14.048 2°55.518 19.1408 1.029397 6.091634 -3.020363
2011-11-10 07:57:42 51°14.057 2°55.508 19.1355 1.034547 6.12436 -3.020363
2011-11-10 07:57:47 51°14.066 2°55.498 19.1432 1.032281 6.109914 -3.020363
2011-11-10 07:57:53 51°14.078 2°55.486 19.1488 1.019714 6.029655 -3.020363
2011-11-10 07:57:57 51°14.085 2°55.478 19.0841 1.013019 5.986841 -3.020363
2011-11-10 07:58:02 51°14.095 2°55.468 19.1121 1.013019 5.986841 -3.020363
2011-11-10 07:58:07 51°14.105 2°55.458 19.1427 1.02847 6.085319 -3.020363
2011-11-10 07:58:12 51°14.115 2°55.448 19.0859 1.012813 5.985531 -3.020363
2011-11-10 07:58:17 51°14.124 2°55.437 19.0779 0.978822 5.769513 -3.020363
2011-11-10 07:58:23 51°14.136 2°55.425 19.0319 0.981912 5.78921 -3.020363
2011-11-10 07:58:29 51°14.148 2°55.413 19.0944 1.011577 5.977867 -3.020363
2011-11-10 07:58:33 51°14.157 2°55.405 19.1241 1.011577 5.977867 -3.020363
2011-11-10 07:58:40 51°14.171 2°55.391 19.1147 0.982221 5.791461 -3.020363
2011-11-10 07:58:45 51°14.181 2°55.38 19.0905 0.974703 5.743965 -3.020363
2011-11-10 07:58:51 51°14.194 2°55.368 19.1156 0.975115 5.746673 -3.020363
2011-11-10 07:58:56 51°14.205 2°55.358 19.1171 0.95431 5.614883 -3.020363
2011-11-10 07:59:01 51°14.216 2°55.347 19.086 0.969759 5.712722 -3.020363
2011-11-10 07:59:05 51°14.224 2°55.34 19.1072 0.969759 5.712722 -3.020363
2011-11-10 07:59:11 51°14.237 2°55.327 19.0523 0.94401 5.549739 -3.020363
2011-11-10 07:59:16 51°14.248 2°55.317 19.0973 0.952559 5.60371 -3.020363
2011-11-10 07:59:21 51°14.259 2°55.307 19.1227 0.963785 5.674778 -3.020363
2011-11-10 07:59:25 51°14.268 2°55.299 19.1464 0.951735 5.598591 -3.020363
2011-11-10 07:59:31 51°14.281 2°55.287 19.1392 0.95503 5.619446 -3.020363
2011-11-10 07:59:36 51°14.292 2°55.277 19.1738 0.95503 5.619446 -3.020363
2011-11-10 07:59:41 51°14.303 2°55.267 19.1667 0.962137 5.664531 -3.020363
2011-11-10 07:59:45 51°14.313 2°55.258 19.1619 0.941539 5.5343 -3.020363
2011-11-10 07:59:51 51°14.326 2°55.246 19.1226 0.953898 5.612558 -3.020363
2011-11-10 07:59:56 51°14.337 2°55.235 19.1545 0.93711 5.506406 -3.020363
2011-11-10 08:00:01 51°14.349 2°55.224 19.1844 0.964918 5.68243 -3.020363
2011-11-10 08:00:05 51°14.358 2°55.216 19.2437 0.964918 5.68243 -3.020363
2011-11-10 08:00:11 51°14.371 2°55.202 19.2418 0.968111 5.702851 -3.020363
2011-11-10 08:00:16 51°14.382 2°55.19 19.1802 0.956884 5.631745 -3.020363
2011-11-10 08:00:21 51°14.393 2°55.177 19.077 0.925781 5.434961 -3.020363
2011-11-10 08:00:25 51°14.402 2°55.167 19.0911 0.931755 5.472579 -3.020363
2011-11-10 08:00:30 51°14.413 2°55.155 19.0953 0.911672 5.345799 -3.020363
2011-11-10 08:00:36 51°14.426 2°55.139 19.0501 0.911672 5.345799 -3.020363
2011-11-10 08:00:41 51°14.437 2°55.126 19.1095 0.896534 5.250377 -3.020363
2011-11-10 08:00:45 51°14.447 2°55.116 19.171 0.943495 5.546669 -3.020363
2011-11-10 08:00:50 51°14.458 2°55.104 19.177 0.913114 5.355065 -3.020363
2011-11-10 08:00:55 51°14.47 2°55.09 19.058 0.902404 5.287502 -3.020363
2011-11-10 08:01:00 51°14.481 2°55.077 19.0906 0.916719 5.377789 -3.020363
2011-11-10 08:01:05 51°14.493 2°55.064 19.1588 0.916719 5.377789 -3.020363
2011-11-10 08:01:09 51°14.503 2°55.053 19.1228 0.907965 5.322705 -3.020363
2011-11-10 08:01:14 51°14.514 2°55.038 19.206 0.888192 5.198258 -3.020363
2011-11-10 08:01:19 51°14.525 2°55.023 19.3138 0.904258 5.299529 -3.020363
2011-11-10 08:01:24 51°14.536 2°55.006 18.9822 0.877071 5.128625 -3.020363
2011-11-10 08:01:29 51°14.547 2°54.989 19.0482 0.887884 5.196228 -3.020363
2011-11-10 08:01:34 51°14.558 2°54.972 19.1933 0.887884 5.196228 -3.020363
2011-11-10 08:01:39 51°14.569 2°54.956 19.2862 0.947615 5.573185 -3.020363
2011-11-10 08:01:43 51°14.577 2°54.942 19.2787 0.981397 5.787686 -3.020363
2011-11-10 08:01:48 51°14.588 2°54.924 19.2219 0.957502 5.636317 -3.020363
2011-11-10 08:01:53 51°14.597 2°54.904 19.2607 0.947821 5.575141 -3.020363
2011-11-10 08:01:58 51°14.606 2°54.884 19.1815 0.96739 5.699141 -3.020363
2011-11-10 08:02:03 51°14.614 2°54.862 19.2284 0.96739 5.699141 -3.020363
2011-11-10 08:02:08 51°14.622 2°54.84 19.2604 0.95122 5.596644 -3.020363
2011-11-10 08:02:13 51°14.629 2°54.817 19.2998 0.998907 5.899287 -3.020363
2011-11-10 08:02:17 51°14.634 2°54.798 19.3254 1.012813 5.988136 -3.020363
2011-11-10 08:02:22 51°14.639 2°54.773 19.3195 1.013431 5.992271 -3.020363
2011-11-10 08:02:27 51°14.642 2°54.748 19.3179 1.023011 6.05338 -3.020363
2011-11-10 08:02:32 51°14.643 2°54.722 19.2982 1.023011 6.05338 -3.020363
2011-11-10 08:02:37 51°14.643 2°54.696 19.2794 1.015903 6.008211 -3.020363
2011-11-10 08:02:42 51°14.641 2°54.67 19.2822 1.019096 6.028647 -3.020363
2011-11-10 08:02:47 51°14.638 2°54.645 19.2358 1.010856 5.97608 -3.020363
2011-11-10 08:02:53 51°14.632 2°54.615 19.2417 1.011886 5.982536 -3.020363
2011-11-10 08:02:57 51°14.627 2°54.595 19.1154 0.973776 5.740201 -3.020363
2011-11-10 08:03:02 51°14.62 2°54.571 19.0941 0.973776 5.740201 -3.020363
2011-11-10 08:03:07 51°14.613 2°54.547 19.1011 0.902301 5.288003 -3.020363
2011-11-10 08:03:12 51°14.605 2°54.523 19.0748 0.929901 5.461787 -3.020363
2011-11-10 08:03:17 51°14.597 2°54.499 19.0362 0.87532 5.117887 -3.020363
2011-11-10 08:03:22 51°14.588 2°54.475 18.87 0.805816 4.682507 -3.020363
2011-11-10 08:03:27 51°14.579 2°54.45 18.9038 0.728497 4.20221 -3.020363
2011-11-10 08:03:32 51°14.57 2°54.425 19.0115 0.728497 4.20221 -3.020363
2011-11-10 08:03:37 51°14.562 2°54.399 19.0358 0.822805 4.787945 -3.020363
2011-11-10 08:03:42 51°14.553 2°54.374 19.0938 0.775443 4.493045 -3.020363
2011-11-10 08:03:48 51°14.543 2°54.343 19.1393 0.84762 4.943516 -3.020363
2011-11-10 08:03:52 51°14.535 2°54.323 19.1505 0.854313 4.985771 -3.020363
2011-11-10 08:03:57 51°14.525 2°54.298 19.1214 0.840515 4.899538 -3.020363
2011-11-10 08:04:02 51°14.515 2°54.274 19.1219 0.840515 4.899538 -3.020363
2011-11-10 08:04:08 51°14.502 2°54.245 19.0567 0.841648 4.906708 -3.020363
2011-11-10 08:04:12 51°14.494 2°54.227 19.0701 0.789754 4.582704 -3.020363
2011-11-10 08:04:17 51°14.483 2°54.203 19.0398 0.799947 4.646091 -3.020363
2011-11-10 08:04:22 51°14.471 2°54.18 19.001 0.712231 4.102296 -3.020363
2011-11-10 08:04:27 51°14.46 2°54.157 18.9866 0.727673 4.197612 -3.020363
2011-11-10 08:04:33 51°14.446 2°54.129 19.0838 0.727673 4.197612 -3.020363
2011-11-10 08:04:37 51°14.438 2°54.11 19.0216 0.65613 3.757392 -3.020363
2011-11-10 08:04:42 51°14.426 2°54.087 18.9745 0.728497 4.202631 -3.020363
2011-11-10 08:04:47 51°14.415 2°54.064 19.0759 0.499388 2.807737 -3.020363
2011-11-10 08:04:52 51°14.404 2°54.041 19.0818 0.759691 4.395651 -3.020363
2011-11-10 08:04:57 51°14.393 2°54.017 19.115 0.742292 4.287937 -3.020363
2011-11-10 08:05:02 51°14.381 2°53.994 18.9955 0.742292 4.287937 -3.020363
2011-11-10 08:05:07 51°14.37 2°53.97 19.0582 0.492185 2.764677 -3.020363
2011-11-10 08:05:12 51°14.359 2°53.947 19.1002 0.596227 3.392061 -3.020363
2011-11-10 08:05:17 51°14.348 2°53.924 19.0872 0.690099 3.966123 -3.020363
2011-11-10 08:05:22 51°14.337 2°53.9 19.1776 0.778223 4.51122 -3.020363
2011-11-10 08:05:27 51°14.326 2°53.877 19.1527 0.763603 4.420656 -3.020363
2011-11-10 08:05:32 51°14.314 2°53.853 19.1581 0.763603 4.420656 -3.020363
2011-11-10 08:05:37 51°14.303 2°53.831 19.1452 0.802109 4.660341 -3.020363
2011-11-10 08:05:42 51°14.291 2°53.808 19.136 0.789342 4.580907 -3.020363
2011-11-10 08:05:47 51°14.279 2°53.786 19.1107 0.798814 4.639811 -3.020363
2011-11-10 08:05:53 51°14.264 2°53.759 19.1451 0.739409 4.270814 -3.020363
2011-11-10 08:05:57 51°14.255 2°53.741 19.0602 0.729526 4.209695 -3.020363
2011-11-10 08:06:02 51°14.242 2°53.719 19.0583 0.729526 4.209695 -3.020363
2011-11-10 08:06:08 51°14.228 2°53.693 19.1169 0.59458 3.382566 -3.020363
2011-11-10 08:06:13 51°14.215 2°53.671 19.0898 0.668482 3.833733 -3.020363
2011-11-10 08:06:17 51°14.206 2°53.653 19.1548 0.589846 3.353761 -3.020363
2011-11-10 08:06:22 51°14.194 2°53.631 19.141 0.748778 4.328888 -3.020363
2011-11-10 08:06:27 51°14.181 2°53.61 19.1299 0.744042 4.299632 -3.020363
2011-11-10 08:06:33 51°14.167 2°53.583 19.1358 0.744042 4.299632 -3.020363
2011-11-10 08:06:37 51°14.157 2°53.566 19.063 0.740645 4.278602 -3.020363
2011-11-10 08:06:42 51°14.145 2°53.544 19.0714 0.588405 3.345127 -3.020363
2011-11-10 08:06:47 51°14.133 2°53.522 19.1211 0.694937 3.996356 -3.020363
2011-11-10 08:06:52 51°14.121 2°53.5 19.1113 0.628545 3.589489 -3.020363
2011-11-10 08:06:57 51°14.108 2°53.478 19.0691 0.65438 3.747365 -3.020363
2011-11-10 08:07:02 51°14.096 2°53.456 19.087 0.65438 3.747365 -3.020363
2011-11-10 08:07:07 51°14.085 2°53.433 19.0442 0.541785 3.063061 -3.020363
2011-11-10 08:07:12 51°14.073 2°53.41 19.1016 0.53592 3.027714 -3.020363
2011-11-10 08:07:17 51°14.061 2°53.387 19.0855 0.597977 3.403259 -3.020363
2011-11-10 08:07:22 51°14.05 2°53.364 19.1618 0.612592 3.492172 -3.020363
2011-11-10 08:07:27 51°14.039 2°53.341 19.1364 0.696378 4.005428 -3.020363
2011-11-10 08:07:32 51°14.028 2°53.318 19.0986 0.696378 4.005428 -3.020363
2011-11-10 08:07:37 51°14.017 2°53.294 19.1726 0.656233 3.758963 -3.020363
2011-11-10 08:07:42 51°14.005 2°53.271 19.1356 0.765559 4.433239 -3.020363
2011-11-10 08:07:47 51°13.994 2°53.248 19.1643 0.682996 3.923309 -3.020363
2011-11-10 08:07:53 51°13.981 2°53.22 19.0684 0.713467 4.111082 -3.020363
2011-11-10 08:07:57 51°13.972 2°53.201 19.1665 0.682687 3.921476 -3.020363
2011-11-10 08:08:02 51°13.96 2°53.178 19.1782 0.682687 3.921476 -3.020363
2011-11-10 08:08:07 51°13.949 2°53.154 19.1937 0.758146 4.387541 -3.020363
2011-11-10 08:08:12 51°13.938 2°53.131 19.1445 0.779046 4.517397 -3.020363
2011-11-10 08:08:17 51°13.926 2°53.108 19.1522 0.766486 4.439362 -3.020363
2011-11-10 08:08:22 51°13.915 2°53.085 19.1226 0.770089 4.461812 -3.020363
2011-11-10 08:08:27 51°13.903 2°53.063 19.1603 0.658086 3.770691 -3.020363
2011-11-10 08:08:32 51°13.891 2°53.04 19.1655 0.658086 3.770691 -3.020363
2011-11-10 08:08:37 51°13.879 2°53.018 19.1347 0.759382 4.395425 -3.020363
2011-11-10 08:08:42 51°13.868 2°52.995 19.1405 0.563088 3.192272 -3.020363
2011-11-10 08:08:47 51°13.856 2°52.972 19.1829 0.727364 4.197106 -3.020363
2011-11-10 08:08:53 51°13.842 2°52.945 19.1609 0.683305 3.925534 -3.020363
2011-11-10 08:08:57 51°13.832 2°52.927 19.148 0.702246 4.042171 -3.020363
2011-11-10 08:09:02 51°13.82 2°52.905 19.0463 0.702246 4.042171 -3.020363
2011-11-10 08:09:07 51°13.808 2°52.883 19.0788 0.452674 2.530007 -3.020363
2011-11-10 08:09:12 51°13.796 2°52.86 19.0656 0.637912 3.647113 -3.020363
2011-11-10 08:09:17 51°13.784 2°52.837 19.1395 0.632045 3.611333 -3.020363
2011-11-10 08:09:22 51°13.773 2°52.814 19.068 0.479015 2.686924 -3.020363
2011-11-10 08:09:27 51°13.762 2°52.79 19.1713 0.611254 3.484548 -3.020363
2011-11-10 08:09:32 51°13.75 2°52.767 19.0374 0.611254 3.484548 -3.020363
2011-11-10 08:09:37 51°13.739 2°52.743 19.1313 0.387753 2.146333 -3.020363
2011-11-10 08:09:42 51°13.729 2°52.719 19.1282 0.710481 4.092803 -3.020363
2011-11-10 08:09:47 51°13.719 2°52.694 19.1457 0.751969 4.349679 -3.020363
2011-11-10 08:09:53 51°13.706 2°52.665 19.0721 0.647484 3.706082 -3.020363
2011-11-10 08:09:57 51°13.698 2°52.645 19.106 0.382815 2.117484 -3.020363
2011-11-10 08:10:02 51°13.689 2°52.619 19.0689 0.382815 2.117484 -3.020363
2011-11-10 08:10:07 51°13.679 2°52.594 19.1066 0.680526 3.908648 -3.020363
2011-11-10 08:10:12 51°13.67 2°52.568 19.0628 0.437549 2.440469 -3.020363
2011-11-10 08:10:17 51°13.66 2°52.542 19.1476 0.381478 2.109707 -3.020363
2011-11-10 08:10:22 51°13.651 2°52.516 19.1739 0.60374 3.439277 -3.020363
2011-11-10 08:10:27 51°13.643 2°52.49 19.0929 0.3608 1.988711 -3.020363
2011-11-10 08:10:32 51°13.634 2°52.463 19.1154 0.3608 1.988711 -3.020363
2011-11-10 08:10:37 51°13.625 2°52.437 19.1691 0.56597 3.210027 -3.020363
2011-11-10 08:10:42 51°13.617 2°52.41 19.173 0.756602 4.378696 -3.020363
2011-11-10 08:10:48 51°13.607 2°52.378 19.1724 0.755573 4.372384 -3.020363
2011-11-10 08:10:53 51°13.599 2°52.351 19.1206 0.641617 3.670498 -3.020363
2011-11-10 08:10:57 51°13.593 2°52.33 19.081 0.532524 3.008218 -3.020363
2011-11-10 08:11:02 51°13.585 2°52.303 19.1222 0.532524 3.008218 -3.020363
2011-11-10 08:11:07 51°13.577 2°52.276 19.1386 0.485394 2.725487 -3.020363
2011-11-10 08:11:12 51°13.569 2°52.249 19.1645 0.658601 3.774601 -3.020363
2011-11-10 08:11:17 51°13.562 2°52.222 19.1786 0.656954 3.764634 -3.020363
2011-11-10 08:11:22 51°13.554 2°52.195 19.1516 0.70132 4.03734 -3.020363
2011-11-10 08:11:27 51°13.546 2°52.168 19.2058 0.754234 4.364523 -3.020363
2011-11-10 08:11:32 51°13.538 2°52.141 19.163 0.754234 4.364523 -3.020363
2011-11-10 08:11:37 51°13.53 2°52.115 19.1557 0.620105 3.539427 -3.020363
2011-11-10 08:11:42 51°13.522 2°52.088 19.1031 0.607754 3.46411 -3.020363
2011-11-10 08:11:47 51°13.514 2°52.062 19.1746 0.639661 3.658785 -3.020363
2011-11-10 08:11:52 51°13.506 2°52.035 19.0863 0.755264 4.371053 -3.020363
2011-11-10 08:11:57 51°13.497 2°52.008 19.1448 0.608887 3.471119 -3.020363
2011-11-10 08:12:02 51°13.489 2°51.982 19.1608 0.608887 3.471119 -3.020363
2011-11-10 08:12:07 51°13.481 2°51.955 19.1903 0.702967 4.047693 -3.020363
2011-11-10 08:12:12 51°13.473 2°51.929 19.2028 0.688349 3.957806 -3.020363
2011-11-10 08:12:17 51°13.464 2°51.902 19.1745 0.733129 4.234233 -3.020363
2011-11-10 08:12:22 51°13.456 2°51.876 19.1731 0.714084 4.116543 -3.020363
2011-11-10 08:12:27 51°13.447 2°51.85 19.1414 0.572556 3.250773 -3.020363
2011-11-10 08:12:32 51°13.438 2°51.824 19.1445 0.572556 3.250773 -3.020363
2011-11-10 08:12:37 51°13.429 2°51.797 19.1149 0.579246 3.29116 -3.020363
2011-11-10 08:12:42 51°13.42 2°51.771 19.1449 0.602608 3.433077 -3.020363
2011-11-10 08:12:47 51°13.412 2°51.745 19.1493 0.567205 3.218145 -3.020363
2011-11-10 08:12:53 51°13.401 2°51.714 19.1547 0.486732 2.733894 -3.020363
2011-11-10 08:12:57 51°13.394 2°51.693 19.1592 0.593757 3.379256 -3.020363
2011-11-10 08:13:02 51°13.385 2°51.666 19.1609 0.593757 3.379256 -3.020363
2011-11-10 08:13:07 51°13.377 2°51.64 19.1554 0.609607 3.475739 -3.020363
2011-11-10 08:13:12 51°13.368 2°51.614 19.1544 0.525217 2.964935 -3.020363
2011-11-10 08:13:17 51°13.36 2°51.587 19.1504 0.622781 3.556284 -3.020363
2011-11-10 08:13:22 51°13.351 2°51.56 19.1906 0.571321 3.243453 -3.020363
2011-11-10 08:13:27 51°13.343 2°51.534 19.1626 0.729012 4.209115 -3.020363
2011-11-10 08:13:33 51°13.332 2°51.502 19.198 0.729012 4.209115 -3.020363
2011-11-10 08:13:37 51°13.326 2°51.481 19.1876 0.640691 3.665935 -3.020363
2011-11-10 08:13:42 51°13.317 2°51.455 19.1861 0.642132 3.67475 -3.020363
2011-11-10 08:13:47 51°13.308 2°51.428 19.1881 0.610945 3.484296 -3.020363
2011-11-10 08:13:52 51°13.3 2°51.402 19.2402 0.767412 4.447345 -3.020363
2011-11-10 08:13:57 51°13.291 2°51.375 19.2035 0.773693 4.486447 -3.020363
2011-11-10 08:14:02 51°13.282 2°51.349 19.2233 0.773693 4.486447 -3.020363
2011-11-10 08:14:07 51°13.273 2°51.324 19.1805 0.773384 4.484452 -3.020363
2011-11-10 08:14:12 51°13.263 2°51.298 19.1786 0.736939 4.258373 -3.020363
2011-11-10 08:14:17 51°13.254 2°51.272 19.1876 0.588611 3.348554 -3.020363
2011-11-10 08:14:22 51°13.244 2°51.246 19.1521 0.696584 4.009173 -3.020363
2011-11-10 08:14:27 51°13.235 2°51.221 19.1625 0.652219 3.736563 -3.020363
2011-11-10 08:14:32 51°13.225 2°51.195 19.1322 0.652219 3.736563 -3.020363
2011-11-10 08:14:37 51°13.215 2°51.17 19.1764 0.677541 3.891932 -3.020363
2011-11-10 08:14:42 51°13.206 2°51.144 19.1481 0.552591 3.130394 -3.020363
2011-11-10 08:14:47 51°13.196 2°51.119 19.1931 0.492906 2.771385 -3.020363
2011-11-10 08:14:52 51°13.187 2°51.093 19.1769 0.454011 2.539353 -3.020363
2011-11-10 08:14:57 51°13.178 2°51.068 19.1769 0.547445 3.099419 -3.020363
2011-11-10 08:15:02 51°13.168 2°51.042 19.196 0.547445 3.099419 -3.020363
2011-11-10 08:15:07 51°13.159 2°51.016 19.2243 0.51328 2.893711 -3.020363
2011-11-10 08:15:12 51°13.149 2°50.99 19.1951 0.691334 3.977241 -3.020363
2011-11-10 08:15:17 51°13.14 2°50.965 19.1628 0.621649 3.550028 -3.020363
2011-11-10 08:15:22 51°13.131 2°50.939 19.2048 0.569777 3.234642 -3.020363
2011-11-10 08:15:28 51°13.12 2°50.908 19.1541 0.507003 2.85612 -3.020363
2011-11-10 08:15:33 51°13.11 2°50.882 19.1678 0.507003 2.85612 -3.020363
2011-11-10 08:15:37 51°13.103 2°50.862 19.1512 0.498462 2.804948 -3.020363
2011-11-10 08:15:42 51°13.093 2°50.836 19.1462 0.521307 2.94215 -3.020363
2011-11-10 08:15:47 51°13.084 2°50.81 19.1323 0.616297 3.517559 -3.020363
2011-11-10 08:15:52 51°13.075 2°50.783 19.166 0.528819 2.987509 -3.020363
2011-11-10 08:15:57 51°13.066 2°50.758 19.1839 0.537155 3.037736 -3.020363
2011-11-10 08:16:02 51°13.058 2°50.732 19.1742 0.537155 3.037736 -3.020363
2011-11-10 08:16:07 51°13.049 2°50.705 19.1822 0.594786 3.386755 -3.020363
2011-11-10 08:16:12 51°13.041 2°50.679 19.2221 0.573688 3.258612 -3.020363
2011-11-10 08:16:17 51°13.032 2°50.652 19.2 0.537463 3.039597 -3.020363
2011-11-10 08:16:22 51°13.025 2°50.625 19.2225 0.610533 3.482602 -3.020363
2011-11-10 08:16:27 51°13.016 2°50.598 19.1947 0.639661 3.660496 -3.020363
2011-11-10 08:16:32 51°13.008 2°50.572 19.222 0.639661 3.660496 -3.020363
2011-11-10 08:16:37 51°13 2°50.545 19.2151 0.73035 4.218591 -3.020363
2011-11-10 08:16:42 51°12.991 2°50.519 19.2229 0.653763 3.746961 -3.020363
2011-11-10 08:16:47 51°12.983 2°50.492 19.2211 0.713055 4.111839 -3.020363
2011-11-10 08:16:52 51°12.974 2°50.466 19.1279 0.651601 3.733841 -3.020363
2011-11-10 08:16:57 51°12.965 2°50.439 19.1878 0.528304 2.984609 -3.020363
2011-11-10 08:17:02 51°12.957 2°50.413 19.1661 0.528304 2.984609 -3.020363
2011-11-10 08:17:08 51°12.947 2°50.381 19.1969 0.473252 2.654572 -3.020363
2011-11-10 08:17:12 51°12.94 2°50.36 19.1696 0.604152 3.444024 -3.020363
2011-11-10 08:17:17 51°12.931 2°50.334 19.1802 0.681041 3.914754 -3.020363
2011-11-10 08:17:22 51°12.923 2°50.307 19.2126 0.644396 3.6899 -3.020363
2011-11-10 08:17:27 51°12.914 2°50.281 19.2122 0.669718 3.845291 -3.020363
2011-11-10 08:17:33 51°12.904 2°50.249 19.2069 0.669718 3.845291 -3.020363
2011-11-10 08:17:37 51°12.897 2°50.228 19.2058 0.68279 3.925715 -3.020363
2011-11-10 08:17:42 51°12.888 2°50.201 19.2187 0.599109 3.413672 -3.020363
2011-11-10 08:17:47 51°12.879 2°50.175 19.2001 0.64419 3.688886 -3.020363
2011-11-10 08:17:53 51°12.869 2°50.144 19.2097 0.641926 3.675025 -3.020363
2011-11-10 08:17:57 51°12.862 2°50.122 19.2083 0.524909 2.964611 -3.020363
2011-11-10 08:18:02 51°12.853 2°50.096 19.1992 0.524909 2.964611 -3.020363
2011-11-10 08:18:07 51°12.845 2°50.069 19.2427 0.61218 3.493395 -3.020363
2011-11-10 08:18:12 51°12.836 2°50.043 19.1201 0.622576 3.556869 -3.020363
2011-11-10 08:18:17 51°12.827 2°50.016 19.2323 0.610328 3.482103 -3.020363
2011-11-10 08:18:22 51°12.819 2°49.99 19.2129 0.680423 3.911348 -3.020363
2011-11-10 08:18:27 51°12.81 2°49.964 19.2166 0.663747 3.808828 -3.020363
2011-11-10 08:18:32 51°12.801 2°49.937 19.2498 0.663747 3.808828 -3.020363
2011-11-10 08:18:37 51°12.792 2°49.911 19.2272 0.757838 4.389808 -3.020363
2011-11-10 08:18:42 51°12.783 2°49.884 19.2061 0.601579 3.428991 -3.020363
2011-11-10 08:18:47 51°12.774 2°49.858 19.2169 0.685776 3.944479 -3.020363
2011-11-10 08:18:52 51°12.765 2°49.832 19.2841 0.733027 4.236288 -3.020363
2011-11-10 08:18:57 51°12.756 2°49.806 19.2969 0.787386 4.57424 -3.020363
2011-11-10 08:19:02 51°12.746 2°49.78 19.249 0.787386 4.57424 -3.020363
2011-11-10 08:19:07 51°12.737 2°49.755 19.0974 0.664571 3.814584 -3.020363
2011-11-10 08:19:12 51°12.727 2°49.73 19.1204 0.514927 2.904959 -3.020363
2011-11-10 08:19:17 51°12.717 2°49.704 19.1873 0.597051 3.40166 -3.020363
2011-11-10 08:19:22 51°12.708 2°49.679 19.1552 0.641411 3.672305 -3.020363
2011-11-10 08:19:28 51°12.696 2°49.647 19.2304 0.514309 2.901199 -3.020363
2011-11-10 08:19:32 51°12.689 2°49.627 19.2332 0.514309 2.901199 -3.020363
2011-11-10 08:19:37 51°12.679 2°49.601 19.2236 0.617018 3.523365 -3.020363
2011-11-10 08:19:42 51°12.67 2°49.575 19.2308 0.580687 3.302269 -3.020363
2011-11-10 08:19:48 51°12.659 2°49.545 19.2654 0.628751 3.595185 -3.020363
2011-11-10 08:19:53 51°12.649 2°49.519 19.1969 0.423865 2.361798 -3.020363
2011-11-10 08:19:57 51°12.642 2°49.498 19.2324 0.498154 2.804501 -3.020363
2011-11-10 08:20:02 51°12.633 2°49.472 19.1908 0.498154 2.804501 -3.020363
2011-11-10 08:20:07 51°12.623 2°49.446 19.1806 0.477677 2.681977 -3.020363
2011-11-10 08:20:13 51°12.612 2°49.415 19.1783 0.425614 2.372233 -3.020363
2011-11-10 08:20:17 51°12.606 2°49.394 19.1427 0.448764 2.509616 -3.020363
2011-11-10 08:20:22 51°12.597 2°49.367 19.2174 0.555575 3.150376 -3.020363
2011-11-10 08:20:27 51°12.589 2°49.341 19.2357 0.620723 3.54639 -3.020363
2011-11-10 08:20:32 51°12.58 2°49.314 19.2238 0.620723 3.54639 -3.020363
2011-11-10 08:20:37 51°12.572 2°49.288 19.2212 0.520895 2.941245 -3.020363
2011-11-10 08:20:42 51°12.564 2°49.261 19.2396 0.541271 3.064097 -3.020363
2011-11-10 08:20:47 51°12.556 2°49.234 19.2407 0.500726 2.820164 -3.020363
2011-11-10 08:20:52 51°12.547 2°49.207 19.2412 0.543123 3.075433 -3.020363
2011-11-10 08:20:57 51°12.539 2°49.181 19.2936 0.672909 3.866445 -3.020363
2011-11-10 08:21:02 51°12.531 2°49.154 19.2299 0.672909 3.866445 -3.020363
2011-11-10 08:21:07 51°12.523 2°49.127 19.2682 0.607755 3.467815 -3.020363
2011-11-10 08:21:12 51°12.515 2°49.1 19.2534 0.62978 3.602258 -3.020363
2011-11-10 08:21:17 51°12.506 2°49.074 19.2066 0.585215 3.330712 -3.020363
2011-11-10 08:21:22 51°12.498 2°49.047 19.2885 0.649234 3.721328 -3.020363
2011-11-10 08:21:27 51°12.489 2°49.021 19.2329 0.579966 3.298833 -3.020363
2011-11-10 08:21:32 51°12.481 2°48.994 19.255 0.579966 3.298833 -3.020363
2011-11-10 08:21:37 51°12.472 2°48.968 19.2491 0.623502 3.563954 -3.020363
2011-11-10 08:21:42 51°12.464 2°48.941 19.2397 0.600035 3.420851 -3.020363
2011-11-10 08:21:48 51°12.453 2°48.91 19.2959 0.579452 3.295764 -3.020363
2011-11-10 08:21:53 51°12.445 2°48.883 19.2833 0.706981 4.076943 -3.020363
2011-11-10 08:21:57 51°12.438 2°48.862 19.2654 0.583054 3.317859 -3.020363
2011-11-10 08:22:02 51°12.429 2°48.837 19.2865 0.583054 3.317859 -3.020363
2011-11-10 08:22:07 51°12.42 2°48.81 19.3038 0.703996 4.058651 -3.020363
2011-11-10 08:22:12 51°12.411 2°48.784 19.267 0.699261 4.02957 -3.020363
2011-11-10 08:22:17 51°12.401 2°48.758 19.2428 0.592008 3.372453 -3.020363
2011-11-10 08:22:22 51°12.392 2°48.733 19.2249 0.50618 2.853608 -3.020363
2011-11-10 08:22:27 51°12.382 2°48.707 19.1918 0.485394 2.728988 -3.020363
2011-11-10 08:22:33 51°12.371 2°48.677 19.2086 0.485394 2.728988 -3.020363
2011-11-10 08:22:37 51°12.363 2°48.656 19.2741 0.455658 2.551401 -3.020363
2011-11-10 08:22:42 51°12.354 2°48.63 19.247 0.600756 3.425753 -3.020363
2011-11-10 08:22:47 51°12.345 2°48.604 19.2476 0.556605 3.157709 -3.020363
2011-11-10 08:22:52 51°12.335 2°48.578 19.2396 0.559692 3.176504 -3.020363
2011-11-10 08:22:57 51°12.326 2°48.552 19.2573 0.612695 3.498696 -3.020363
2011-11-10 08:23:02 51°12.317 2°48.526 19.2374 0.612695 3.498696 -3.020363
2011-11-10 08:23:07 51°12.308 2°48.5 19.2247 0.550636 3.121811 -3.020363
2011-11-10 08:23:12 51°12.298 2°48.474 19.2477 0.531906 3.008764 -3.020363
2011-11-10 08:23:17 51°12.289 2°48.448 19.271 0.50937 2.873153 -3.020363
2011-11-10 08:23:22 51°12.28 2°48.422 19.2459 0.475208 2.668469 -3.020363
2011-11-10 08:23:27 51°12.27 2°48.396 19.2792 0.454011 2.541979 -3.020363
2011-11-10 08:23:32 51°12.261 2°48.37 19.235 0.454011 2.541979 -3.020363
2011-11-10 08:23:37 51°12.252 2°48.344 19.2455 0.493215 2.776242 -3.020363
2011-11-10 08:23:42 51°12.243 2°48.318 19.237 0.619797 3.542275 -3.020363
2011-11-10 08:23:48 51°12.232 2°48.287 19.2354 0.423762 2.362409 -3.020363
2011-11-10 08:23:53 51°12.224 2°48.26 19.2676 0.429421 2.395983 -3.020363
2011-11-10 08:23:57 51°12.217 2°48.239 19.3197 0.707805 4.083189 -3.020363
2011-11-10 08:24:02 51°12.208 2°48.213 19.3672 0.707805 4.083189 -3.020363
2011-11-10 08:24:08 51°12.197 2°48.182 19.2809 0.791504 4.603139 -3.020363
2011-11-10 08:24:12 51°12.19 2°48.162 19.1757 0.475002 2.667595 -3.020363
2011-11-10 08:24:17 51°12.18 2°48.137 19.2654 0.479323 2.693209 -3.020363
2011-11-10 08:24:22 51°12.172 2°48.11 19.2486 0.493523 2.778232 -3.020363
2011-11-10 08:24:27 51°12.163 2°48.084 19.2057 0.405243 2.252979 -3.020363
2011-11-10 08:24:32 51°12.155 2°48.057 19.2379 0.405243 2.252979 -3.020363
2011-11-10 08:24:37 51°12.147 2°48.03 19.2598 0.425923 2.375288 -3.020363
2011-11-10 08:24:42 51°12.139 2°48.003 19.2711 0.438784 2.451627 -3.020363
2011-11-10 08:24:47 51°12.132 2°47.976 19.278 0.479118 2.692023 -3.020363
2011-11-10 08:24:52 51°12.125 2°47.948 19.2931 0.51009 2.877866 -3.020363
2011-11-10 08:24:57 51°12.117 2°47.921 19.2911 0.557428 3.163538 -3.020363
2011-11-10 08:25:02 51°12.11 2°47.893 19.3054 0.557428 3.163538 -3.020363
2011-11-10 08:25:07 51°12.103 2°47.865 19.3217 0.625869 3.580091 -3.020363
2011-11-10 08:25:12 51°12.096 2°47.838 19.3268 0.555884 3.154562 -3.020363
2011-11-10 08:25:17 51°12.089 2°47.81 19.2783 0.571527 3.249527 -3.020363
2011-11-10 08:25:22 51°12.082 2°47.783 19.2558 0.506283 2.85556 -3.020363
2011-11-10 08:25:27 51°12.075 2°47.755 19.289 0.582333 3.315201 -3.020363
2011-11-10 08:25:32 51°12.067 2°47.728 19.3099 0.582333 3.315201 -3.020363
2011-11-10 08:25:37 51°12.06 2°47.7 19.3155 0.638323 3.656895 -3.020363
2011-11-10 08:25:42 51°12.053 2°47.673 19.3206 0.647381 3.71252 -3.020363
2011-11-10 08:25:47 51°12.045 2°47.645 19.2827 0.688349 3.964498 -3.020363
2011-11-10 08:25:53 51°12.036 2°47.613 19.3151 0.683202 3.93272 -3.020363
2011-11-10 08:25:57 51°12.03 2°47.591 19.3045 0.628648 3.597864 -3.020363
2011-11-10 08:26:02 51°12.022 2°47.564 19.2899 0.628648 3.597864 -3.020363
2011-11-10 08:26:07 51°12.014 2°47.537 19.3152 0.579246 3.296718 -3.020363
2011-11-10 08:26:12 51°12.006 2°47.51 19.3284 0.641205 3.674793 -3.020363
2011-11-10 08:26:17 51°11.998 2°47.483 19.3407 0.704511 4.064345 -3.020363
2011-11-10 08:26:22 51°11.989 2°47.457 19.3109 0.555164 3.150833 -3.020363
2011-11-10 08:26:27 51°11.981 2°47.43 19.2275 0.615062 3.515019 -3.020363
2011-11-10 08:26:32 51°11.972 2°47.403 19.2305 0.615062 3.515019 -3.020363
2011-11-10 08:26:37 51°11.964 2°47.377 19.2942 0.453188 2.538264 -3.020363
2011-11-10 08:26:42 51°11.955 2°47.35 19.292 0.572145 3.253873 -3.020363
2011-11-10 08:26:47 51°11.947 2°47.323 19.2889 0.573791 3.263868 -3.020363
2011-11-10 08:26:53 51°11.937 2°47.291 19.3202 0.594684 3.390943 -3.020363
2011-11-10 08:26:57 51°11.93 2°47.27 19.2754 0.584083 3.326558 -3.020363
2011-11-10 08:27:02 51°11.922 2°47.243 19.3276 0.584083 3.326558 -3.020363
2011-11-10 08:27:07 51°11.914 2°47.216 19.3304 0.610739 3.488926 -3.020363
2011-11-10 08:27:12 51°11.905 2°47.19 19.3141 0.565764 3.215433 -3.020363
2011-11-10 08:27:17 51°11.897 2°47.163 19.2511 0.439607 2.457746 -3.020363
2011-11-10 08:27:22 51°11.888 2°47.136 19.2494 0.525629 2.972767 -3.020363
2011-11-10 08:27:27 51°11.88 2°47.109 19.2932 0.562059 3.193079 -3.020363
2011-11-10 08:27:32 51°11.871 2°47.082 19.2782 0.562059 3.193079 -3.020363
2011-11-10 08:27:37 51°11.863 2°47.056 19.2591 0.548475 3.110876 -3.020363
2011-11-10 08:27:42 51°11.856 2°47.028 19.3173 0.428701 2.39307 -3.020363
2011-11-10 08:27:47 51°11.848 2°47.001 19.302 0.481484 2.707671 -3.020363
2011-11-10 08:27:53 51°11.839 2°46.968 19.3028 0.534479 3.026252 -3.020363
2011-11-10 08:27:57 51°11.833 2°46.946 19.339 0.572659 3.257486 -3.020363
2011-11-10 08:28:02 51°11.826 2°46.919 19.322 0.572659 3.257486 -3.020363
2011-11-10 08:28:07 51°11.819 2°46.892 19.3412 0.484365 2.725013 -3.020363
2011-11-10 08:28:12 51°11.812 2°46.864 19.3481 0.647999 3.717364 -3.020363
2011-11-10 08:28:17 51°11.804 2°46.837 19.3518 0.718408 4.151289 -3.020363
2011-11-10 08:28:22 51°11.797 2°46.809 19.3033 0.606108 3.461309 -3.020363
2011-11-10 08:28:27 51°11.789 2°46.782 19.3076 0.477883 2.686389 -3.020363
2011-11-10 08:28:32 51°11.782 2°46.755 19.2927 0.477883 2.686389 -3.020363
2011-11-10 08:28:37 51°11.774 2°46.727 19.3192 0.476648 2.679001 -3.020363
2011-11-10 08:28:42 51°11.767 2°46.7 19.3257 0.5882 3.352155 -3.020363
2011-11-10 08:28:48 51°11.758 2°46.667 19.3378 0.575335 3.274007 -3.020363
2011-11-10 08:28:53 51°11.751 2°46.639 19.3375 0.677747 3.900564 -3.020363
2011-11-10 08:28:57 51°11.744 2°46.617 19.3818 0.674865 3.883015 -3.020363
2011-11-10 08:29:02 51°11.737 2°46.59 19.368 0.674865 3.883015 -3.020363
2011-11-10 08:29:07 51°11.729 2°46.563 19.3852 0.760617 4.413938 -3.020363
2011-11-10 08:29:12 51°11.72 2°46.537 19.3477 0.747028 4.329626 -3.020363
2011-11-10 08:29:17 51°11.712 2°46.509 19.3313 0.632251 3.621721 -3.020363
2011-11-10 08:29:22 51°11.703 2°46.483 19.31 0.536331 3.038299 -3.020363
2011-11-10 08:29:27 51°11.695 2°46.457 19.2679 0.466976 2.621628 -3.020363
2011-11-10 08:29:32 51°11.686 2°46.43 19.2997 0.466976 2.621628 -3.020363
2011-11-10 08:29:37 51°11.677 2°46.404 19.3547 0.587171 3.346397 -3.020363
2011-11-10 08:29:42 51°11.668 2°46.377 19.2644 0.621135 3.553597 -3.020363
2011-11-10 08:29:47 51°11.66 2°46.35 19.3325 0.463478 2.60065 -3.020363
2011-11-10 08:29:52 51°11.651 2°46.324 19.3237 0.400305 2.225585 -3.020363
2011-11-10 08:29:57 51°11.642 2°46.298 19.2851 0.418824 2.335078 -3.020363
2011-11-10 08:30:02 51°11.634 2°46.271 19.3297 0.418824 2.335078 -3.020363
2011-11-10 08:30:07 51°11.626 2°46.244 19.3009 0.419853 2.341212 -3.020363
2011-11-10 08:30:12 51°11.617 2°46.217 19.3284 0.460905 2.585427 -3.020363
2011-11-10 08:30:17 51°11.609 2°46.191 19.3154 0.474487 2.666657 -3.020363
2011-11-10 08:30:22 51°11.601 2°46.164 19.3438 0.445574 2.494231 -3.020363
2011-11-10 08:30:27 51°11.593 2°46.138 19.3505 0.4927 2.77594 -3.020363
2011-11-10 08:30:32 51°11.585 2°46.11 19.3179 0.4927 2.77594 -3.020363
2011-11-10 08:30:37 51°11.577 2°46.083 19.3236 0.500726 2.82417 -3.020363
2011-11-10 08:30:42 51°11.569 2°46.056 19.3384 0.438064 2.449719 -3.020363
2011-11-10 08:30:47 51°11.561 2°46.029 19.3398 0.532009 3.012707 -3.020363
2011-11-10 08:30:53 51°11.552 2°45.996 19.3427 0.487349 2.744081 -3.020363
2011-11-10 08:30:57 51°11.546 2°45.974 19.3559 0.557016 3.16406 -3.020363
2011-11-10 08:31:02 51°11.538 2°45.947 19.3478 0.557016 3.16406 -3.020363
2011-11-10 08:31:08 51°11.529 2°45.914 19.342 0.466667 2.620309 -3.020363
2011-11-10 08:31:12 51°11.523 2°45.893 19.3801 0.548166 3.110517 -3.020363
2011-11-10 08:31:17 51°11.516 2°45.865 19.3601 0.547549 3.106833 -3.020363
2011-11-10 08:31:22 51°11.508 2°45.838 19.3754 0.582642 3.319798 -3.020363
2011-11-10 08:31:27 51°11.501 2°45.811 19.346 0.638015 3.658004 -3.020363
2011-11-10 08:31:33 51°11.492 2°45.779 19.3641 0.638015 3.658004 -3.020363
2011-11-10 08:31:37 51°11.486 2°45.757 19.3546 0.545902 3.096973 -3.020363
2011-11-10 08:31:42 51°11.478 2°45.73 19.3608 0.491157 2.767097 -3.020363
2011-11-10 08:31:47 51°11.47 2°45.704 19.3459 0.536331 3.039061 -3.020363
2011-11-10 08:31:52 51°11.462 2°45.677 19.3618 0.531803 3.011766 -3.020363
2011-11-10 08:31:57 51°11.454 2°45.65 19.397 0.634618 3.637252 -3.020363
2011-11-10 08:32:02 51°11.446 2°45.623 19.3163 0.634618 3.637252 -3.020363
2011-11-10 08:32:07 51°11.438 2°45.597 19.402 0.529128 2.995817 -3.020363
2011-11-10 08:32:12 51°11.43 2°45.57 19.3725 0.672909 3.87273 -3.020363
2011-11-10 08:32:17 51°11.422 2°45.543 19.3779 0.643058 3.689356 -3.020363
2011-11-10 08:32:22 51°11.413 2°45.517 19.3484 0.585421 3.337205 -3.020363
2011-11-10 08:32:27 51°11.405 2°45.49 19.377 0.628957 3.603009 -3.020363
2011-11-10 08:32:32 51°11.397 2°45.463 19.3922 0.628957 3.603009 -3.020363
2011-11-10 08:32:37 51°11.388 2°45.437 19.3959 0.701732 4.050778 -3.020363
2011-11-10 08:32:42 51°11.38 2°45.411 19.3233 0.581098 3.311074 -3.020363
2011-11-10 08:32:47 51°11.371 2°45.385 19.3384 0.524188 2.966265 -3.020363
2011-11-10 08:32:52 51°11.362 2°45.359 19.3351 0.520381 2.943309 -3.020363
2011-11-10 08:32:57 51°11.354 2°45.333 19.3183 0.485292 2.732386 -3.020363
2011-11-10 08:33:02 51°11.345 2°45.306 19.3095 0.485292 2.732386 -3.020363
2011-11-10 08:33:08 51°11.335 2°45.275 19.3322 0.438166 2.450986 -3.020363
2011-11-10 08:33:12 51°11.329 2°45.254 19.3572 0.513692 2.903061 -3.020363
2011-11-10 08:33:17 51°11.321 2°45.227 19.3817 0.443002 2.479877 -3.020363
2011-11-10 08:33:22 51°11.313 2°45.201 19.3778 0.488276 2.750415 -3.020363
2011-11-10 08:33:27 51°11.304 2°45.174 19.3816 0.536023 3.037959 -3.020363
2011-11-10 08:33:33 51°11.295 2°45.143 19.3871 0.536023 3.037959 -3.020363
2011-11-10 08:33:37 51°11.288 2°45.122 19.4083 0.572865 3.261245 -3.020363
2011-11-10 08:33:42 51°11.28 2°45.095 19.4156 0.6023 3.440621 -3.020363
2011-11-10 08:33:47 51°11.271 2°45.069 19.3808 0.56278 3.200229 -3.020363
2011-11-10 08:33:52 51°11.263 2°45.042 19.3905 0.517911 2.929013 -3.020363
2011-11-10 08:33:57 51°11.255 2°45.016 19.2758 0.324487 1.782637 -3.020363
2011-11-10 08:34:02 51°11.247 2°44.99 19.2982 0.324487 1.782637 -3.020363
2011-11-10 08:34:07 51°11.238 2°44.963 19.3575 0.430656 2.406797 -3.020363
2011-11-10 08:34:12 51°11.231 2°44.936 19.3281 0.447941 2.509702 -3.020363
2011-11-10 08:34:17 51°11.224 2°44.908 19.3377 0.521822 2.952586 -3.020363
2011-11-10 08:34:22 51°11.217 2°44.882 19.3604 0.531495 3.011011 -3.020363
2011-11-10 08:34:27 51°11.21 2°44.854 19.3127 0.508135 2.870191 -3.020363
2011-11-10 08:34:32 51°11.203 2°44.827 19.3903 0.508135 2.870191 -3.020363
2011-11-10 08:34:37 51°11.197 2°44.799 19.3973 0.61321 3.507525 -3.020363
2011-11-10 08:34:42 51°11.19 2°44.771 19.3926 0.444237 2.487725 -3.020363
2011-11-10 08:34:47 51°11.184 2°44.743 19.4262 0.627619 3.595842 -3.020363
2011-11-10 08:34:52 51°11.178 2°44.715 19.4232 0.619385 3.545573 -3.020363
2011-11-10 08:34:57 51°11.172 2°44.687 19.3755 0.50546 2.85443 -3.020363
2011-11-10 08:35:02 51°11.166 2°44.66 19.4011 0.50546 2.85443 -3.020363
2011-11-10 08:35:08 51°11.158 2°44.626 19.3847 0.545079 3.093546 -3.020363
2011-11-10 08:35:12 51°11.153 2°44.604 19.3917 0.513898 2.905272 -3.020363
2011-11-10 08:35:17 51°11.147 2°44.576 19.3846 0.616194 3.52624 -3.020363
2011-11-10 08:35:22 51°11.14 2°44.549 19.391 0.573586 3.266552 -3.020363
2011-11-10 08:35:28 51°11.133 2°44.515 19.3765 0.494038 2.785875 -3.020363
2011-11-10 08:35:33 51°11.126 2°44.488 19.4322 0.494038 2.785875 -3.020363
2011-11-10 08:35:37 51°11.121 2°44.465 19.4145 0.629266 3.606349 -3.020363
2011-11-10 08:35:42 51°11.115 2°44.438 19.4225 0.583774 3.32869 -3.020363
2011-11-10 08:35:47 51°11.108 2°44.41 19.4328 0.60549 3.46125 -3.020363
2011-11-10 08:35:52 51°11.101 2°44.382 19.44 0.527584 2.988202 -3.020363
2011-11-10 08:35:57 51°11.094 2°44.355 19.4125 0.652116 3.747017 -3.020363
2011-11-10 08:36:02 51°11.087 2°44.328 19.3974 0.652116 3.747017 -3.020363
2011-11-10 08:36:07 51°11.08 2°44.3 19.4063 0.58892 3.360306 -3.020363
2011-11-10 08:36:12 51°11.073 2°44.273 19.3838 0.625869 3.585971 -3.020363
2011-11-10 08:36:17 51°11.065 2°44.246 19.4175 0.685467 3.952429 -3.020363
2011-11-10 08:36:22 51°11.058 2°44.219 19.4395 0.561339 3.192825 -3.020363
2011-11-10 08:36:27 51°11.05 2°44.193 19.2908 0.39156 2.176193 -3.020363
2011-11-10 08:36:32 51°11.042 2°44.166 19.3987 0.39156 2.176193 -3.020363
2011-11-10 08:36:37 51°11.034 2°44.139 19.3546 0.51431 2.908092 -3.020363
2011-11-10 08:36:42 51°11.027 2°44.112 19.3633 0.509988 2.882062 -3.020363
2011-11-10 08:36:47 51°11.02 2°44.085 19.3334 0.535611 3.036691 -3.020363
2011-11-10 08:36:52 51°11.013 2°44.058 19.3937 0.55609 3.160775 -3.020363
2011-11-10 08:36:57 51°11.006 2°44.03 19.3726 0.413474 2.305755 -3.020363
2011-11-10 08:37:02 51°11 2°44.002 19.3983 0.413474 2.305755 -3.020363
2011-11-10 08:37:07 51°10.993 2°43.975 19.4041 0.529848 3.002124 -3.020363
2011-11-10 08:37:12 51°10.987 2°43.947 19.402 0.536846 3.044462 -3.020363
2011-11-10 08:37:17 51°10.981 2°43.919 19.3864 0.520278 2.944511 -3.020363
2011-11-10 08:37:22 51°10.975 2°43.891 19.3952 0.670027 3.857639 -3.020363
2011-11-10 08:37:27 51°10.97 2°43.863 19.4249 0.526144 2.980004 -3.020363
2011-11-10 08:37:33 51°10.963 2°43.829 19.4285 0.526144 2.980004 -3.020363
2011-11-10 08:37:37 51°10.958 2°43.807 19.4402 0.672806 3.874889 -3.020363
2011-11-10 08:37:42 51°10.952 2°43.779 19.3979 0.580584 3.310162 -3.020363
2011-11-10 08:37:47 51°10.946 2°43.751 19.4194 0.507518 2.867868 -3.020363
2011-11-10 08:37:52 51°10.94 2°43.724 19.4231 0.559075 3.179567 -3.020363
2011-11-10 08:37:57 51°10.934 2°43.695 19.4278 0.513898 2.906391 -3.020363
2011-11-10 08:38:02 51°10.928 2°43.668 19.4068 0.513898 2.906391 -3.020363
2011-11-10 08:38:07 51°10.922 2°43.64 19.4615 0.532009 3.015734 -3.020363
2011-11-10 08:38:12 51°10.916 2°43.612 19.4084 0.564941 3.215335 -3.020363
2011-11-10 08:38:17 51°10.91 2°43.584 19.4347 0.523674 2.965494 -3.020363
2011-11-10 08:38:22 51°10.904 2°43.556 19.4151 0.569984 3.246024 -3.020363
2011-11-10 08:38:27 51°10.897 2°43.529 19.4238 0.511737 2.893516 -3.020363
2011-11-10 08:38:32 51°10.891 2°43.501 19.3517 0.511737 2.893516 -3.020363
2011-11-10 08:38:37 51°10.885 2°43.474 19.4252 0.433948 2.427818 -3.020363
2011-11-10 08:38:42 51°10.878 2°43.446 19.4087 0.524086 2.968029 -3.020363
2011-11-10 08:38:47 51°10.872 2°43.418 19.4229 0.574203 3.271785 -3.020363
2011-11-10 08:38:52 51°10.866 2°43.391 19.4374 0.560104 3.186239 -3.020363
2011-11-10 08:38:57 51°10.859 2°43.363 19.4301 0.517397 2.927921 -3.020363
2011-11-10 08:39:02 51°10.853 2°43.335 19.4514 0.517397 2.927921 -3.020363
2011-11-10 08:39:07 51°10.847 2°43.308 19.4485 0.643882 3.697877 -3.020363
2011-11-10 08:39:12 51°10.84 2°43.28 19.4727 0.610842 3.495522 -3.020363
2011-11-10 08:39:17 51°10.833 2°43.253 19.4586 0.668689 3.850625 -3.020363
2011-11-10 08:39:22 51°10.827 2°43.226 19.4263 0.521822 2.954811 -3.020363
2011-11-10 08:39:27 51°10.819 2°43.199 19.3988 0.496713 2.803539 -3.020363
2011-11-10 08:39:33 51°10.811 2°43.166 19.4448 0.496713 2.803539 -3.020363
2011-11-10 08:39:37 51°10.806 2°43.144 19.4147 0.559075 3.180207 -3.020363
2011-11-10 08:39:42 51°10.799 2°43.117 19.4395 0.465947 2.618983 -3.020363
2011-11-10 08:39:48 51°10.791 2°43.085 19.4214 0.502579 2.838764 -3.020363
2011-11-10 08:39:53 51°10.784 2°43.057 19.4525 0.52388 2.967234 -3.020363
2011-11-10 08:39:57 51°10.779 2°43.035 19.4015 0.506077 2.859963 -3.020363
2011-11-10 08:40:02 51°10.772 2°43.008 19.4549 0.506077 2.859963 -3.020363
2011-11-10 08:40:08 51°10.764 2°42.975 19.4345 0.507312 2.867493 -3.020363
2011-11-10 08:40:12 51°10.758 2°42.954 19.4271 0.516265 2.921585 -3.020363
2011-11-10 08:40:17 51°10.752 2°42.926 19.4445 0.565352 3.218806 -3.020363
2011-11-10 08:40:22 51°10.745 2°42.899 19.5296 0.651396 3.744788 -3.020363
2011-11-10 08:40:27 51°10.739 2°42.872 19.5282 0.63678 3.655273 -3.020363
2011-11-10 08:40:33 51°10.73 2°42.839 19.4628 0.63678 3.655273 -3.020363
2011-11-10 08:40:37 51°10.724 2°42.818 19.4197 0.582848 3.325616 -3.020363
2011-11-10 08:40:42 51°10.716 2°42.792 19.4118 0.516779 2.92508 -3.020363
2011-11-10 08:40:47 51°10.709 2°42.765 19.4212 0.486423 2.742382 -3.020363
2011-11-10 08:40:52 51°10.701 2°42.738 19.418 0.509267 2.879702 -3.020363
2011-11-10 08:40:57 51°10.694 2°42.712 19.4416 0.432816 2.422021 -3.020363
2011-11-10 08:41:02 51°10.686 2°42.686 19.4456 0.432816 2.422021 -3.020363
2011-11-10 08:41:07 51°10.679 2°42.659 19.4411 0.43724 2.448344 -3.020363
2011-11-10 08:41:12 51°10.672 2°42.633 19.4603 0.399893 2.226835 -3.020363
2011-11-10 08:41:17 51°10.664 2°42.606 19.472 0.389091 2.163042 -3.020363
2011-11-10 08:41:22 51°10.657 2°42.579 19.4552 0.48488 2.73321 -3.020363
2011-11-10 08:41:27 51°10.65 2°42.553 19.4549 0.60055 3.433687 -3.020363
2011-11-10 08:41:32 51°10.643 2°42.526 19.4888 0.60055 3.433687 -3.020363
2011-11-10 08:41:37 51°10.636 2°42.499 19.44 0.564735 3.215756 -3.020363
2011-11-10 08:41:42 51°10.629 2°42.472 19.4538 0.528716 2.997446 -3.020363
2011-11-10 08:41:47 51°10.622 2°42.445 19.4818 0.596948 3.411925 -3.020363
2011-11-10 08:41:52 51°10.615 2°42.418 19.4496 0.660866 3.803865 -3.020363
2011-11-10 08:41:57 51°10.607 2°42.392 19.4728 0.466667 2.624476 -3.020363
2011-11-10 08:42:02 51°10.6 2°42.365 19.4611 0.466667 2.624476 -3.020363
2011-11-10 08:42:08 51°10.592 2°42.333 19.4312 0.520587 2.948447 -3.020363
2011-11-10 08:42:12 51°10.586 2°42.312 19.4383 0.440739 2.469668 -3.020363
2011-11-10 08:42:17 51°10.579 2°42.285 19.4786 0.461214 2.591903 -3.020363
2011-11-10 08:42:22 51°10.572 2°42.258 19.4798 0.42438 2.372516 -3.020363
2011-11-10 08:42:27 51°10.566 2°42.232 19.4601 0.437652 2.451491 -3.020363
2011-11-10 08:42:33 51°10.558 2°42.199 19.4788 0.437652 2.451491 -3.020363
2011-11-10 08:42:37 51°10.552 2°42.178 19.4735 0.546314 3.104556 -3.020363
2011-11-10 08:42:42 51°10.545 2°42.151 19.4731 0.43652 2.444875 -3.020363
2011-11-10 08:42:47 51°10.539 2°42.124 19.4697 0.499595 2.822421 -3.020363
2011-11-10 08:42:52 51°10.532 2°42.098 19.4795 0.454114 2.549784 -3.020363
2011-11-10 08:42:57 51°10.525 2°42.071 19.4525 0.416046 2.323129 -3.020363
2011-11-10 08:43:02 51°10.518 2°42.044 19.4656 0.416046 2.323129 -3.020363
2011-11-10 08:43:07 51°10.512 2°42.017 19.4494 0.452057 2.537412 -3.020363
2011-11-10 08:43:12 51°10.505 2°41.99 19.4193 0.460082 2.585353 -3.020363
2011-11-10 08:43:17 51°10.499 2°41.963 19.4596 0.392383 2.183163 -3.020363
2011-11-10 08:43:22 51°10.492 2°41.936 19.4259 0.334157 1.841407 -3.020363
2011-11-10 08:43:27 51°10.486 2°41.909 19.3895 0.375408 2.083233 -3.020363